U26194 / G-UZHV 7700 Squawk Report (5th of November, 2019)

Aircraft A20N Reg No. G-UZHV Age 7 months old
Model A320 Jet engines 2 First flight 08-04-19
Registered 16-04-19 Rollout N/A Delivered 16-04-19
Construction No. 8722 Line No. N/A Series 251N(SL)
ADSHEX 40768A Airline name easyJet Owner N/A
Airfield based Luton~Beds~G First tracked 2019-04-17 17:49:00
Time Lat Lon Altitude Heading Speed Vertical Rate
2019-11-05 15:29:42 GMT 44.145538 -4.448569 20,625 137 474 -3136
2019-11-05 15:29:19 GMT 44.183441 -4.496283 21,875 137 476 -3200
2019-11-05 15:28:33 GMT 44.258331 -4.591435 24,425 148 521 -2240
2019-11-05 15:27:30 GMT 44.371216 -4.714246 27,575 146 506 -3264
2019-11-05 15:27:22 GMT 44.386597 -4.728503 28,025 146 508 -2496
2019-11-05 15:27:10 GMT 44.410507 -4.750448 28,450 147 513 -1984
2019-11-05 15:27:00 GMT 44.429672 -4.767543 28,850 148 519 -2496
2019-11-05 15:26:54 GMT 44.443840 -4.779790 29,150 148 521 -2240
2019-11-05 15:26:48 GMT 44.456085 -4.790235 29,375 148 524 -1984
2019-11-05 15:26:38 GMT 44.475311 -4.806385 29,625 149 531 -1472
2019-11-05 15:26:27 GMT 44.519119 -4.843205 30,125 148 538 -1472
2019-11-05 15:26:17 GMT 44.542328 -4.862823 30,450 148 538 -1472
2019-11-05 15:26:07 GMT 44.542328 -4.862823 30,400 148 541 -1408
2019-11-05 15:25:54 GMT 44.586685 -4.900426 31,325 148 542 -1344
2019-11-05 15:25:46 GMT 44.586685 -4.900426 30,875 148 543 -1408
2019-11-05 15:25:42 GMT 44.602257 -4.913635 31,325 148 544 -1408
2019-11-05 15:25:39 GMT 44.602257 -4.913635 31,050 148 543 -1408
2019-11-05 15:25:34 GMT 44.612778 -4.922545 31,175 148 544 -1472
2019-11-05 15:25:28 GMT 44.682003 -4.982032 31,225 148 544 -1472
2019-11-05 15:25:01 GMT 44.682003 -4.982032 31,950 148 544 -1408
2019-11-05 15:24:34 GMT 44.741180 -5.032131 32,625 148 541 -1408
2019-11-05 15:24:25 GMT 44.762772 -5.050227 32,875 149 542 -1472
2019-11-05 15:24:18 GMT 44.776176 -5.061348 33,000 149 542 -1408
2019-11-05 15:23:55 GMT 44.824997 -5.101515 33,425 149 543 -1408
2019-11-05 15:23:48 GMT 44.842934 -5.116145 33,725 149 549 -1536
2019-11-05 15:23:39 GMT 44.861088 -5.130950 33,925 149 550 -1536
2019-11-05 15:23:28 GMT 44.883865 -5.149645 34,200 149 551 -1472
2019-11-05 15:23:16 GMT 44.912434 -5.173221 34,525 149 547 -1600
2019-11-05 15:23:07 GMT 44.929779 -5.187574 34,725 149 545 -1536
2019-11-05 15:22:58 GMT 44.951431 -5.205558 34,950 149 542 -1344
2019-11-05 15:22:47 GMT 44.974304 -5.224870 35,200 148 539 -1344
2019-11-05 15:22:36 GMT 44.996696 -5.243962 35,450 148 540 -1280
2019-11-05 15:22:23 GMT 45.025726 -5.269121 35,750 148 541 -1536
2019-11-05 15:22:16 GMT 45.040421 -5.281873 35,925 148 541 -1536
2019-11-05 15:22:06 GMT 45.061981 -5.300576 36,175 148 541 -1536
2019-11-05 15:21:52 GMT 45.093201 -5.327911 36,550 148 538 -1408
2019-11-05 15:21:45 GMT 45.105766 -5.338954 36,700 148 536 -1408
2019-11-05 15:21:24 GMT 45.149551 -5.377481 37,200 148 527 -1472
2019-11-05 15:21:04 GMT 45.192818 -5.415724 37,725 147 520 -1472
2019-11-05 15:20:53 GMT 45.213535 -5.434280 37,925 147 518 -768
2019-11-05 15:20:38 GMT 45.242477 -5.460270 38,000 147 517 0
2019-11-05 15:20:32 GMT 45.254688 -5.471191 38,000 147 517 -64
2019-11-05 15:20:11 GMT 45.297562 -5.509577 38,025 147 518 0
2019-11-05 15:20:01 GMT 45.317871 -5.527758 38,025 147 518 64
2019-11-05 15:19:51 GMT 45.337597 -5.545550 38,000 147 519 64
2019-11-05 15:19:41 GMT 45.358383 -5.564314 38,000 147 520 0
2019-11-05 15:19:29 GMT 45.382416 -5.586286 38,000 146 521 0
2019-11-05 15:19:20 GMT 45.400303 -5.602826 38,000 146 521 0
2019-11-05 15:19:10 GMT 45.421623 -5.622655 38,000 146 521 0
2019-11-05 15:19:00 GMT 45.442013 -5.641479 38,000 147 521 64
2019-11-05 15:18:49 GMT 45.466232 -5.663714 38,000 147 523 0
2019-11-05 15:18:39 GMT 45.483765 -5.679670 38,000 147 527 0
2019-11-05 15:18:29 GMT 45.505463 -5.699359 38,000 147 529 0
2019-11-05 15:18:18 GMT 45.526840 -5.718645 38,000 147 530 0
2019-11-05 15:18:09 GMT 45.547127 -5.736649 38,000 148 531 0
2019-11-05 15:17:58 GMT 45.569229 -5.755831 38,000 147 530 0
2019-11-05 15:17:47 GMT 45.591492 -5.776268 38,000 145 525 0
2019-11-05 15:17:37 GMT 45.611481 -5.796159 38,000 143 520 0
2019-11-05 15:17:27 GMT 45.630459 -5.816231 38,000 143 518 -64
2019-11-05 15:17:17 GMT 45.653591 -5.840813 38,000 143 513 0
2019-11-05 15:17:05 GMT 45.673145 -5.861618 38,000 143 510 0
2019-11-05 15:16:54 GMT 45.702335 -5.892654 38,000 143 506 64
2019-11-05 15:16:39 GMT 45.721840 -5.913254 38,000 143 502 -64
2019-11-05 15:16:28 GMT 45.751678 -5.944977 38,000 142 496 0
2019-11-05 15:16:14 GMT 45.769043 -5.964437 38,025 139 491 0
2019-11-05 15:16:03 GMT 45.786209 -5.987281 38,000 132 483 64
2019-11-05 15:15:52 GMT 45.800858 -6.011933 38,000 125 476 0
2019-11-05 15:15:42 GMT 45.813034 -6.038155 38,000 118 468 0
2019-11-05 15:15:30 GMT 45.824253 -6.070908 38,000 110 457 0
2019-11-05 15:15:20 GMT 45.831329 -6.101326 38,000 104 450 0
2019-11-05 15:15:10 GMT 45.835194 -6.128792 38,000 96 439 0
2019-11-05 15:14:58 GMT 45.836655 -6.164402 38,000 89 429 0
2019-11-05 15:14:51 GMT 45.835522 -6.186813 38,000 79 414 0
2019-11-05 15:14:39 GMT 45.831390 -6.215984 38,000 59 385 0
2019-11-05 15:13:39 GMT 45.766159 -6.326115 38,000 24 372 64
2019-11-05 15:13:35 GMT 45.759613 -6.330403 38,000 24 374 0
2019-11-05 15:13:27 GMT 45.747303 -6.338493 38,000 24 383 -64
2019-11-05 15:13:16 GMT 45.729721 -6.349964 38,000 24 389 -64
2019-11-05 15:13:07 GMT 45.714615 -6.359744 38,000 24 389 0
2019-11-05 15:12:57 GMT 45.697586 -6.370798 38,000 24 390 0
2019-11-05 15:12:47 GMT 45.680695 -6.381784 38,000 24 390 0
2019-11-05 15:12:36 GMT 45.663483 -6.392971 38,000 24 390 0
2019-11-05 15:12:26 GMT 45.646271 -6.404158 38,000 24 390 0
2019-11-05 15:12:16 GMT 45.629059 -6.415346 38,000 24 389 0
2019-11-05 15:11:56 GMT 45.597683 -6.435654 38,000 24 389 0
2019-11-05 15:11:53 GMT 45.592987 -6.438658 38,000 24 389 0
2019-11-05 15:11:15 GMT 45.530960 -6.478206 38,000 24 389 0
2019-11-05 15:11:12 GMT 45.525375 -6.481737 38,000 24 389 0
2019-11-05 15:11:00 GMT 45.505005 -6.494686 38,000 24 389 0
2019-11-05 15:10:51 GMT 45.491917 -6.502968 38,000 24 389 0
2019-11-05 15:10:40 GMT 45.473202 -6.514893 38,000 24 390 0
2019-11-05 15:10:07 GMT 45.418968 -6.549258 38,000 24 390 0
2019-11-05 15:10:01 GMT 45.406357 -6.557268 38,000 24 390 64
2019-11-05 15:09:48 GMT 45.388000 -6.568778 38,000 23 391 0
2019-11-05 15:09:38 GMT 45.370834 -6.579633 38,000 24 391 0
2019-11-05 15:09:25 GMT 45.346939 -6.594936 38,000 24 392 0
2019-11-05 15:09:17 GMT 45.335781 -6.602113 38,000 24 392 0
2019-11-05 15:04:17 GMT 44.832878 -6.919980 38,000 24 387 -64
2019-11-05 15:04:10 GMT 44.821426 -6.927272 38,000 24 385 0
2019-11-05 15:02:48 GMT 44.696732 -7.001888 38,000 22 384 0
2019-11-05 15:01:07 GMT 44.521774 -7.105277 38,025 22 385 -64
2019-11-05 15:00:55 GMT 44.502029 -7.116863 38,025 22 384 -64
2019-11-05 15:00:37 GMT 44.474007 -7.133208 38,050 22 384 0
2019-11-05 15:00:23 GMT 44.449631 -7.147326 38,025 22 385 64
2019-11-05 15:00:10 GMT 44.427063 -7.160405 38,025 22 385 0
2019-11-05 14:59:54 GMT 44.402317 -7.174809 38,025 22 385 0
2019-11-05 14:59:39 GMT 44.377670 -7.189048 38,025 22 385 0
2019-11-05 14:59:23 GMT 44.351948 -7.203883 38,025 22 385 0
2019-11-05 14:59:09 GMT 44.326015 -7.219022 38,025 22 385 0
2019-11-05 14:58:52 GMT 44.300552 -7.233827 38,025 22 384 0
2019-11-05 14:58:38 GMT 44.277927 -7.246957 38,025 22 384 0
2019-11-05 14:58:23 GMT 44.252186 -7.261896 38,025 22 384 0
2019-11-05 14:58:07 GMT 44.227386 -7.276284 38,025 22 383 0
2019-11-05 14:57:57 GMT 44.219055 -7.281124 38,025 22 383 0
2019-11-05 14:57:50 GMT 44.206467 -7.288448 38,025 22 382 0
2019-11-05 14:57:46 GMT 44.201752 -7.291194 38,025 22 382 0
2019-11-05 14:57:36 GMT 44.176941 -7.305461 38,000 22 382 64
2019-11-05 14:57:28 GMT 44.171326 -7.308655 38,000 22 382 64
2019-11-05 14:57:22 GMT 44.161873 -7.314083 38,000 22 381 0
2019-11-05 14:57:15 GMT 44.151031 -7.320344 38,000 22 381 0
2019-11-05 14:57:03 GMT 44.130497 -7.332328 38,000 22 380 0
2019-11-05 14:56:55 GMT 44.117088 -7.340175 38,000 22 380 64
2019-11-05 14:56:46 GMT 44.102921 -7.348512 37,975 22 379 0
2019-11-05 14:56:35 GMT 44.076782 -7.363778 37,975 22 378 0
2019-11-05 14:56:21 GMT 44.054478 -7.376665 37,975 22 377 64
2019-11-05 14:56:14 GMT 44.052055 -7.378039 37,975 22 377 64
2019-11-05 14:56:04 GMT 44.033855 -7.388502 37,950 22 376 64
2019-11-05 14:55:53 GMT 44.017822 -7.397631 37,950 22 376 64
2019-11-05 14:55:43 GMT 44.002617 -7.406289 37,950 22 376 -64
2019-11-05 14:55:33 GMT 43.984322 -7.416818 37,950 22 376 0
2019-11-05 14:55:28 GMT 43.977898 -7.420545 37,950 22 375 -64
2019-11-05 14:55:19 GMT 43.955566 -7.433528 37,975 22 375 -64
2019-11-05 14:55:06 GMT 43.940826 -7.442088 37,975 22 374 -64
2019-11-05 14:55:00 GMT 43.933907 -7.446049 37,975 22 374 -64
2019-11-05 14:54:49 GMT 43.908302 -7.460829 37,975 22 375 0
2019-11-05 14:54:41 GMT 43.902466 -7.464252 37,975 22 375 0
2019-11-05 14:54:30 GMT 43.886097 -7.473777 37,975 22 376 0
2019-11-05 14:54:18 GMT 43.856911 -7.490518 37,975 22 375 64
2019-11-05 14:54:10 GMT 43.852478 -7.493059 37,975 22 376 0
2019-11-05 14:53:59 GMT 43.835358 -7.502812 37,975 22 376 0
2019-11-05 14:53:49 GMT 43.809380 -7.517395 38,000 21 377 -64
2019-11-05 14:53:39 GMT 43.800816 -7.522169 38,000 22 377 0
2019-11-05 14:53:32 GMT 43.784729 -7.531128 38,000 22 377 0
2019-11-05 14:53:27 GMT 43.782242 -7.532501 38,000 22 377 0
2019-11-05 14:53:16 GMT 43.766785 -7.541156 38,000 22 378 0
2019-11-05 14:53:02 GMT 43.735920 -7.558725 38,000 22 379 0
2019-11-05 14:52:55 GMT 43.732910 -7.560382 38,000 22 379 0
2019-11-05 14:52:45 GMT 43.715515 -7.570347 38,000 22 381 -64
2019-11-05 14:52:33 GMT 43.686295 -7.587171 38,025 22 381 -64
2019-11-05 14:52:25 GMT 43.681824 -7.589764 38,025 22 381 -64
2019-11-05 14:52:14 GMT 43.663101 -7.600559 38,025 22 382 0
2019-11-05 14:52:03 GMT 43.647190 -7.609732 38,025 22 383 0
2019-11-05 14:51:56 GMT 43.636459 -7.615825 38,025 22 382 0
2019-11-05 14:51:47 GMT 43.610962 -7.630260 38,025 22 383 64
2019-11-05 14:51:31 GMT 43.594711 -7.639394 38,000 22 383 64
2019-11-05 14:51:24 GMT 43.583740 -7.645503 38,000 22 384 64
2019-11-05 14:51:16 GMT 43.561535 -7.657863 38,000 22 384 0
2019-11-05 14:51:00 GMT 43.536255 -7.672162 38,000 22 385 64
2019-11-05 14:50:53 GMT 43.532822 -7.674078 38,000 22 385 64
2019-11-05 14:50:45 GMT 43.519218 -7.681798 38,000 22 385 64
2019-11-05 14:50:30 GMT 43.485535 -7.700841 37,975 22 386 0
2019-11-05 14:50:22 GMT 43.481514 -7.703116 37,975 22 386 0
2019-11-05 14:50:12 GMT 43.464752 -7.712594 37,975 22 386 -64
2019-11-05 14:49:59 GMT 43.436005 -7.728818 38,000 22 386 -64
2019-11-05 14:49:53 GMT 43.428349 -7.733132 38,000 22 386 0
2019-11-05 14:49:41 GMT 43.413940 -7.741273 38,000 22 385 0
2019-11-05 14:49:30 GMT 43.385788 -7.757242 38,000 22 385 0
2019-11-05 14:49:19 GMT 43.377190 -7.762102 38,000 22 385 0
2019-11-05 14:49:10 GMT 43.362305 -7.770528 38,025 22 385 0
2019-11-05 14:48:59 GMT 43.336212 -7.785283 38,000 22 383 0
2019-11-05 14:48:48 GMT 43.327423 -7.790288 38,025 22 383 -64
2019-11-05 14:48:39 GMT 43.311630 -7.799271 38,050 22 381 -128
2019-11-05 14:48:28 GMT 43.289932 -7.811471 38,050 22 380 -64
2019-11-05 14:48:13 GMT 43.261459 -7.827312 38,075 22 379 -64
2019-11-05 14:48:06 GMT 43.258945 -7.828740 38,050 21 379 -64
2019-11-05 14:47:56 GMT 43.242699 -7.837764 38,050 22 379 0
2019-11-05 14:47:45 GMT 43.223194 -7.848554 38,050 22 380 64
2019-11-05 14:47:37 GMT 43.209972 -7.855879 38,025 22 382 128
2019-11-05 14:47:26 GMT 43.192337 -7.865636 38,025 22 384 64
2019-11-05 14:47:15 GMT 43.173431 -7.876239 38,000 22 385 64
2019-11-05 14:47:03 GMT 43.154938 -7.886523 38,000 22 386 192
2019-11-05 14:46:53 GMT 43.138424 -7.895704 37,950 22 388 128
2019-11-05 14:46:44 GMT 43.123478 -7.904009 37,950 22 388 0
2019-11-05 14:46:37 GMT 43.111908 -7.910412 37,950 22 388 0
2019-11-05 14:46:33 GMT 43.105000 -7.914276 37,950 22 388 0
2019-11-05 14:46:29 GMT 43.097363 -7.918461 37,950 22 388 0
2019-11-05 14:46:23 GMT 43.089157 -7.923059 37,950 22 387 0
2019-11-05 14:46:13 GMT 43.052536 -7.943371 37,950 22 383 -64
2019-11-05 14:46:01 GMT 43.035355 -7.952990 37,950 22 383 -64
2019-11-05 14:45:51 GMT 43.035355 -7.952990 37,950 22 384 0
2019-11-05 14:45:41 GMT 43.015804 -7.963976 37,975 22 383 0
2019-11-05 14:45:29 GMT 43.000256 -7.972674 37,950 22 382 0
2019-11-05 14:45:18 GMT 42.982056 -7.982875 37,975 22 382 -64
2019-11-05 14:45:09 GMT 42.949173 -8.001432 37,975 22 382 -64
2019-11-05 14:44:58 GMT 42.949173 -8.001432 38,000 22 381 -128
2019-11-05 14:44:47 GMT 42.932053 -8.010949 38,025 22 381 -64
2019-11-05 14:44:38 GMT 42.914181 -8.020870 38,025 22 381 0
2019-11-05 14:44:26 GMT 42.897766 -8.029920 38,000 21 381 64
2019-11-05 14:44:16 GMT 42.879593 -8.039884 38,000 21 382 0
2019-11-05 14:44:06 GMT 42.862461 -8.049316 38,025 22 384 -128
2019-11-05 14:43:54 GMT 42.844212 -8.059387 38,050 22 384 -128
2019-11-05 14:43:45 GMT 42.828430 -8.068085 38,050 22 384 0
2019-11-05 14:43:33 GMT 42.810509 -8.077959 38,050 22 384 0
2019-11-05 14:43:24 GMT 42.793945 -8.086999 38,050 21 384 0
2019-11-05 14:43:13 GMT 42.776917 -8.096300 38,050 21 385 -64
2019-11-05 14:43:03 GMT 42.758560 -8.106350 38,050 21 385 0
2019-11-05 14:42:52 GMT 42.742451 -8.115128 38,050 22 385 128
2019-11-05 14:42:42 GMT 42.725132 -8.124709 38,025 22 385 128
2019-11-05 14:42:30 GMT 42.705997 -8.135184 38,000 21 384 64
2019-11-05 14:42:20 GMT 42.688934 -8.144490 38,000 21 383 0
2019-11-05 14:42:11 GMT 42.672386 -8.153452 38,000 21 382 0
2019-11-05 14:41:59 GMT 42.655678 -8.162586 38,000 22 381 0
2019-11-05 14:41:50 GMT 42.638683 -8.171976 38,000 22 382 0
2019-11-05 14:41:38 GMT 42.621231 -8.181631 38,000 22 382 0
2019-11-05 14:41:29 GMT 42.604607 -8.190819 38,000 22 384 0
2019-11-05 14:41:18 GMT 42.585846 -8.201230 38,000 22 385 64
2019-11-05 14:41:08 GMT 42.570557 -8.209659 38,000 22 387 0
2019-11-05 14:40:56 GMT 42.550598 -8.220707 38,000 21 390 0
2019-11-05 14:40:52 GMT 42.544834 -8.223841 38,000 21 390 0
2019-11-05 14:40:48 GMT 42.536640 -8.228313 38,000 21 389 -64
2019-11-05 14:40:45 GMT 42.532379 -8.230632 38,000 21 389 -64
2019-11-05 14:40:42 GMT 42.527344 -8.233379 38,000 21 389 -64
2019-11-05 14:40:37 GMT 42.511040 -8.242173 38,000 21 388 -64
2019-11-05 14:40:26 GMT 42.501480 -8.247362 38,000 21 386 0
2019-11-05 14:40:23 GMT 42.495911 -8.250349 38,000 21 386 0
2019-11-05 14:40:16 GMT 42.477707 -8.260122 38,000 21 383 0
2019-11-05 14:40:06 GMT 42.467560 -8.265527 38,000 21 381 0
2019-11-05 14:40:02 GMT 42.460373 -8.269397 38,000 21 379 0
2019-11-05 14:39:54 GMT 42.447830 -8.276201 38,000 21 378 64
2019-11-05 14:39:50 GMT 42.442337 -8.279197 38,000 21 377 64
2019-11-05 14:39:44 GMT 42.431900 -8.284841 38,000 21 376 0
2019-11-05 14:39:41 GMT 42.426128 -8.288035 38,000 21 376 -64
2019-11-05 14:39:33 GMT 42.412811 -8.295240 38,000 21 376 -64
2019-11-05 14:39:29 GMT 42.408203 -8.297744 38,000 21 376 -64
2019-11-05 14:39:22 GMT 42.397476 -8.303604 38,000 21 376 0
2019-11-05 14:39:17 GMT 42.388885 -8.308347 38,000 21 376 64
2019-11-05 14:39:13 GMT 42.379993 -8.313201 38,000 21 376 64
2019-11-05 14:39:02 GMT 42.363560 -8.322144 38,000 21 377 64
2019-11-05 14:38:52 GMT 42.346939 -8.331070 38,000 21 376 0
2019-11-05 14:38:41 GMT 42.315857 -8.347799 38,000 21 376 -64
2019-11-05 14:38:33 GMT 42.315857 -8.347799 38,000 21 376 0
2019-11-05 14:38:30 GMT 42.301437 -8.355602 38,000 21 376 -64
2019-11-05 14:38:25 GMT 42.301437 -8.355602 38,000 21 376 -64
2019-11-05 14:38:20 GMT 42.296448 -8.358286 38,000 21 376 -64
2019-11-05 14:38:17 GMT 42.292374 -8.360471 38,000 21 376 -64
2019-11-05 14:38:13 GMT 42.285027 -8.364492 38,000 21 377 -64
2019-11-05 14:38:10 GMT 42.279675 -8.367366 38,000 21 377 -64
2019-11-05 14:38:06 GMT 42.273388 -8.370752 38,000 21 377 -64
2019-11-05 14:38:00 GMT 42.262215 -8.376820 38,000 21 376 -64
2019-11-05 14:37:53 GMT 42.250214 -8.383380 38,025 22 376 -64
2019-11-05 14:37:49 GMT 42.243641 -8.386912 38,000 22 376 0
2019-11-05 14:37:46 GMT 42.241222 -8.388253 38,025 22 376 0
2019-11-05 14:37:43 GMT 42.235588 -8.391383 38,025 22 377 64
2019-11-05 14:37:39 GMT 42.229523 -8.394678 38,000 22 376 64
2019-11-05 14:37:36 GMT 42.225357 -8.396988 38,000 22 376 64
2019-11-05 14:37:28 GMT 42.212082 -8.404166 38,000 21 377 0
2019-11-05 14:37:25 GMT 42.208633 -8.406074 38,000 21 377 -64
2019-11-05 14:37:21 GMT 42.199951 -8.410783 38,000 21 378 -64
2019-11-05 14:37:15 GMT 42.190887 -8.415715 38,025 21 378 -64
2019-11-05 14:37:05 GMT 42.164364 -8.430091 38,050 21 378 -64
2019-11-05 14:36:54 GMT 42.155823 -8.434691 38,050 21 378 -64
2019-11-05 14:36:42 GMT 42.136322 -8.445116 38,050 21 378 -64
2019-11-05 14:36:36 GMT 42.126434 -8.450484 38,050 21 378 0
2019-11-05 14:36:32 GMT 42.120255 -8.453730 38,050 21 378 0
2019-11-05 14:36:25 GMT 42.109680 -8.459410 38,050 21 379 0
2019-11-05 14:36:21 GMT 42.102264 -8.463369 38,050 21 379 0
2019-11-05 14:36:15 GMT 42.091881 -8.468990 38,050 21 379 64
2019-11-05 14:36:11 GMT 42.086853 -8.471673 38,050 21 379 64
2019-11-05 14:36:04 GMT 42.075451 -8.477804 38,025 21 379 64
2019-11-05 14:36:01 GMT 42.069118 -8.481254 38,025 21 379 64
2019-11-05 14:35:53 GMT 42.058411 -8.486938 38,025 21 379 64
2019-11-05 14:35:50 GMT 42.053150 -8.489749 38,025 21 380 64
2019-11-05 14:35:46 GMT 42.047516 -8.492806 38,025 21 380 64
2019-11-05 14:35:40 GMT 42.034576 -8.499713 37,950 21 380 128
2019-11-05 14:35:32 GMT 42.024033 -8.505353 37,975 21 380 128
2019-11-05 14:35:29 GMT 42.017445 -8.508911 37,975 21 380 128
2019-11-05 14:35:19 GMT 42.000778 -8.517853 37,975 21 380 128
2019-11-05 14:35:10 GMT 41.988026 -8.524624 37,950 21 380 64
2019-11-05 14:35:07 GMT 41.982880 -8.527388 37,950 21 380 0
2019-11-05 14:34:58 GMT 41.966858 -8.535878 37,950 21 380 0
2019-11-05 14:34:50 GMT 41.954453 -8.542432 37,950 21 379 0
2019-11-05 14:34:47 GMT 41.950012 -8.544804 37,950 21 379 0
2019-11-05 14:34:40 GMT 41.938351 -8.551004 37,950 21 378 -64
2019-11-05 14:34:37 GMT 41.933212 -8.553730 37,950 21 378 -64
2019-11-05 14:34:30 GMT 41.921268 -8.560138 37,975 21 378 -64
2019-11-05 14:34:26 GMT 41.915447 -8.563268 37,975 21 378 -64
2019-11-05 14:34:19 GMT 41.903625 -8.569655 37,975 22 377 -64
2019-11-05 14:34:15 GMT 41.898193 -8.572582 37,975 21 377 0
2019-11-05 14:34:08 GMT 41.886887 -8.578762 37,975 21 377 0
2019-11-05 14:34:05 GMT 41.882034 -8.581383 37,975 21 377 0
2019-11-05 14:33:58 GMT 41.869720 -8.587626 37,975 19 375 0
2019-11-05 14:33:55 GMT 41.864056 -8.590287 37,975 18 374 0
2019-11-05 14:33:47 GMT 41.847519 -8.597301 37,975 15 372 0
2019-11-05 14:33:36 GMT 41.834167 -8.602103 37,975 13 371 -64
2019-11-05 14:33:31 GMT 41.820480 -8.606319 38,000 12 370 -128
2019-11-05 14:33:26 GMT 41.817318 -8.607213 38,000 12 370 -128
2019-11-05 14:33:22 GMT 41.811035 -8.609037 38,025 11 369 -128
2019-11-05 14:33:17 GMT 41.797207 -8.612898 38,025 11 368 -64
2019-11-05 14:33:13 GMT 41.795715 -8.613345 38,025 11 368 -64
2019-11-05 14:33:05 GMT 41.782215 -8.617114 38,050 11 368 -64
2019-11-05 14:33:02 GMT 41.777939 -8.618275 38,050 11 368 0
2019-11-05 14:32:55 GMT 41.766014 -8.621649 38,025 11 368 0
2019-11-05 14:32:52 GMT 41.760590 -8.623144 38,025 11 368 64
2019-11-05 14:32:42 GMT 41.741547 -8.628512 38,025 11 369 128
2019-11-05 14:32:32 GMT 41.727425 -8.632443 38,000 11 369 128
2019-11-05 14:32:25 GMT 41.714951 -8.635941 38,000 11 370 64
2019-11-05 14:32:22 GMT 41.710480 -8.637234 37,975 11 372 0
2019-11-05 14:32:19 GMT 41.702866 -8.639374 37,975 11 372 64
2019-11-05 14:32:15 GMT 41.697399 -8.640875 37,975 11 372 64
2019-11-05 14:32:12 GMT 41.694839 -8.641577 37,975 11 372 0
2019-11-05 14:32:09 GMT 41.689041 -8.643244 37,975 11 373 0
2019-11-05 14:32:03 GMT 41.678032 -8.646368 37,975 11 372 0
2019-11-05 14:32:00 GMT 41.672195 -8.647988 37,975 11 372 0
2019-11-05 14:31:51 GMT 41.659504 -8.651542 37,975 11 373 0
2019-11-05 14:31:48 GMT 41.653519 -8.653232 37,975 11 373 0
2019-11-05 14:31:42 GMT 41.642139 -8.656396 37,975 11 373 -64
2019-11-05 14:31:38 GMT 41.636810 -8.657913 38,000 11 373 -64
2019-11-05 14:31:34 GMT 41.628128 -8.660356 38,000 11 372 -64
2019-11-05 14:31:28 GMT 41.619965 -8.662595 38,000 11 372 -64
2019-11-05 14:31:24 GMT 41.612045 -8.664780 38,000 11 371 -64
2019-11-05 14:31:21 GMT 41.606899 -8.666233 38,000 11 371 -64
2019-11-05 14:31:17 GMT 41.601288 -8.667776 38,000 11 371 -64
2019-11-05 14:31:14 GMT 41.593773 -8.669874 38,000 11 371 0
2019-11-05 14:31:10 GMT 41.589397 -8.671087 38,000 11 371 -64
2019-11-05 14:31:06 GMT 41.583435 -8.672707 38,000 11 371 -64
2019-11-05 14:31:03 GMT 41.576523 -8.674642 38,000 11 371 0
2019-11-05 14:30:59 GMT 41.571304 -8.676078 38,025 11 371 -64
2019-11-05 14:30:55 GMT 41.553738 -8.680924 38,025 11 371 -64
2019-11-05 14:30:49 GMT 41.553738 -8.680924 38,025 11 371 -64
2019-11-05 14:30:45 GMT 41.547825 -8.682585 38,025 11 371 -64
2019-11-05 14:30:39 GMT 41.535255 -8.686098 38,025 11 371 -64
2019-11-05 14:30:36 GMT 41.532043 -8.686992 38,025 11 372 0
2019-11-05 14:30:33 GMT 41.526398 -8.688563 38,025 11 372 0
2019-11-05 14:30:27 GMT 41.518265 -8.690888 38,025 11 372 0
2019-11-05 14:30:23 GMT 41.508774 -8.693556 38,025 11 372 0
2019-11-05 14:30:17 GMT 41.500854 -8.695741 38,025 11 372 0
2019-11-05 14:30:14 GMT 41.496323 -8.697052 38,025 11 372 64
2019-11-05 14:30:11 GMT 41.490280 -8.698737 38,025 11 372 64
2019-11-05 14:30:05 GMT 41.478836 -8.701921 38,025 11 372 64
2019-11-05 14:30:01 GMT 41.474552 -8.703152 38,025 11 372 64
2019-11-05 14:29:54 GMT 41.461166 -8.706915 38,000 11 372 64
2019-11-05 14:29:51 GMT 41.454575 -8.708725 38,000 11 372 64
2019-11-05 14:29:45 GMT 41.446793 -8.710847 38,000 11 373 0
2019-11-05 14:29:42 GMT 41.442478 -8.712094 38,000 11 373 0
2019-11-05 14:29:39 GMT 41.437405 -8.713500 38,000 11 373 0
2019-11-05 14:29:32 GMT 41.424229 -8.717140 38,000 11 373 64
2019-11-05 14:29:28 GMT 41.416351 -8.719337 38,000 11 373 64
2019-11-05 14:29:24 GMT 41.410542 -8.720909 38,000 11 373 64
2019-11-05 14:29:20 GMT 41.404495 -8.722583 38,000 11 373 0
2019-11-05 14:29:13 GMT 41.392387 -8.725955 38,000 11 374 0
2019-11-05 14:29:10 GMT 41.387238 -8.727389 38,000 11 374 0
2019-11-05 14:29:02 GMT 41.373955 -8.731072 38,000 11 374 0
2019-11-05 14:28:59 GMT 41.367016 -8.733007 38,000 11 374 0
2019-11-05 14:28:52 GMT 41.357380 -8.735691 38,000 11 374 0
2019-11-05 14:28:47 GMT 41.348328 -8.738220 38,000 11 374 0
2019-11-05 14:28:39 GMT 41.333733 -8.742308 37,975 11 374 0
2019-11-05 14:28:31 GMT 41.321396 -8.745741 37,975 11 374 0
2019-11-05 14:28:27 GMT 41.313576 -8.747864 38,000 11 374 0
2019-11-05 14:28:21 GMT 41.303192 -8.750793 38,000 11 374 0
2019-11-05 14:28:16 GMT 41.296417 -8.752686 38,000 11 374 0
2019-11-05 14:28:11 GMT 41.286713 -8.755354 38,000 11 374 0
2019-11-05 14:28:08 GMT 41.281269 -8.756853 38,000 11 373 -64
2019-11-05 14:28:00 GMT 41.263344 -8.761846 38,000 11 373 -64
2019-11-05 14:27:54 GMT 41.258514 -8.763184 38,000 11 373 -64
2019-11-05 14:27:47 GMT 41.246586 -8.766466 38,025 11 373 -64
2019-11-05 14:27:42 GMT 41.239059 -8.768494 38,025 11 373 0
2019-11-05 14:27:38 GMT 41.232201 -8.770398 38,025 11 373 0
2019-11-05 14:27:35 GMT 41.226288 -8.772021 38,025 11 373 0
2019-11-05 14:27:31 GMT 41.220245 -8.773682 38,025 11 373 0
2019-11-05 14:27:28 GMT 41.208878 -8.776765 38,025 11 373 0
2019-11-05 14:27:24 GMT 41.208878 -8.776765 38,025 11 373 64
2019-11-05 14:27:18 GMT 41.196442 -8.780212 38,025 11 373 0
2019-11-05 14:27:15 GMT 41.191040 -8.781677 38,000 11 374 0
2019-11-05 14:27:07 GMT 41.179550 -8.784912 38,000 11 374 0
2019-11-05 14:27:04 GMT 41.173546 -8.786566 38,025 11 373 0
2019-11-05 14:26:59 GMT 41.163803 -8.789246 38,025 11 373 0
2019-11-05 14:26:56 GMT 41.161240 -8.789917 38,025 11 373 0
2019-11-05 14:26:52 GMT 41.155014 -8.791687 38,025 11 373 0
2019-11-05 14:26:46 GMT 41.143890 -8.794681 38,025 11 373 0
2019-11-05 14:26:43 GMT 41.138580 -8.796143 38,025 11 374 0
2019-11-05 14:26:37 GMT 41.127045 -8.799316 38,025 11 374 0
2019-11-05 14:26:33 GMT 41.114937 -8.802608 38,025 11 374 0
2019-11-05 14:26:24 GMT 41.105164 -8.805298 38,025 11 374 0
2019-11-05 14:26:20 GMT 41.100506 -8.806541 38,025 11 375 0
2019-11-05 14:26:14 GMT 41.089920 -8.809448 38,025 11 375 0
2019-11-05 14:26:11 GMT 41.084213 -8.811035 38,025 11 375 0
2019-11-05 14:26:04 GMT 41.071968 -8.814406 38,025 11 375 0
2019-11-05 14:26:01 GMT 41.067627 -8.815613 38,025 11 375 0
2019-11-05 14:25:54 GMT 41.054279 -8.819337 38,025 11 375 0
2019-11-05 14:25:50 GMT 41.042450 -8.822571 38,025 11 375 0
2019-11-05 14:25:41 GMT 41.033432 -8.825073 38,025 11 376 64
2019-11-05 14:25:36 GMT 41.018852 -8.829138 38,025 11 376 64
2019-11-05 14:25:32 GMT 41.017227 -8.829590 38,025 11 376 64
2019-11-05 14:25:22 GMT 40.999283 -8.834473 38,025 11 377 0
2019-11-05 14:25:19 GMT 40.995026 -8.835632 38,025 11 377 0
2019-11-05 14:25:09 GMT 40.977402 -8.840454 38,000 11 377 0
2019-11-05 14:25:01 GMT 40.963074 -8.844421 38,000 11 376 0
2019-11-05 14:24:55 GMT 40.947582 -8.848676 38,000 11 376 64
2019-11-05 14:24:50 GMT 40.945393 -8.849300 38,000 11 376 64
2019-11-05 14:24:47 GMT 40.940971 -8.850548 38,000 11 376 64
2019-11-05 14:24:41 GMT 40.929707 -8.853670 38,000 11 376 64
2019-11-05 14:24:38 GMT 40.925354 -8.854858 37,950 11 376 64
2019-11-05 14:24:35 GMT 40.921700 -8.855854 38,000 11 376 64
2019-11-05 14:24:28 GMT 40.908382 -8.859537 37,975 11 376 64
2019-11-05 14:24:25 GMT 40.903015 -8.861023 37,975 11 376 64
2019-11-05 14:24:18 GMT 40.889740 -8.864624 37,950 11 375 0
2019-11-05 14:24:14 GMT 40.884548 -8.866029 37,975 11 375 0
2019-11-05 14:24:11 GMT 40.879349 -8.867493 37,975 11 375 0
2019-11-05 14:24:07 GMT 40.872894 -8.869263 37,975 11 375 0
2019-11-05 14:24:01 GMT 40.860306 -8.872681 37,975 11 375 64
2019-11-05 14:23:56 GMT 40.854103 -8.874394 37,975 11 374 128
2019-11-05 14:23:52 GMT 40.847820 -8.876079 37,975 11 374 128
2019-11-05 14:23:48 GMT 40.839752 -8.878296 37,950 11 374 128
2019-11-05 14:23:45 GMT 40.835495 -8.879456 37,950 11 374 128
2019-11-05 14:23:42 GMT 40.829945 -8.880948 37,950 11 375 64
2019-11-05 14:23:36 GMT 40.818649 -8.883972 37,950 11 375 -64
2019-11-05 14:23:31 GMT 40.805054 -8.887695 37,950 11 374 0
2019-11-05 14:23:25 GMT 40.801083 -8.888751 37,950 11 374 0
2019-11-05 14:23:19 GMT 40.791584 -8.891310 37,950 11 374 0
2019-11-05 14:23:15 GMT 40.782990 -8.893677 37,950 11 374 0
2019-11-05 14:23:09 GMT 40.774841 -8.895874 37,950 11 374 0
2019-11-05 14:23:03 GMT 40.757584 -8.900574 37,950 11 374 0
2019-11-05 14:22:59 GMT 40.756111 -8.900986 37,950 11 373 0
2019-11-05 14:22:55 GMT 40.750896 -8.902359 37,950 11 373 0
2019-11-05 14:22:52 GMT 40.745640 -8.903795 37,950 11 373 0
2019-11-05 14:22:48 GMT 40.731995 -8.907471 37,950 11 373 0
2019-11-05 14:22:44 GMT 40.731995 -8.907471 37,950 11 373 0
2019-11-05 14:22:41 GMT 40.726505 -8.908976 37,950 11 373 -64
2019-11-05 14:22:33 GMT 40.713284 -8.912534 37,975 11 373 -64
2019-11-05 14:22:30 GMT 40.708282 -8.913879 37,975 11 373 -64
2019-11-05 14:22:26 GMT 40.699409 -8.916279 37,975 11 373 -64
2019-11-05 14:22:23 GMT 40.695499 -8.917340 37,975 11 373 -64
2019-11-05 14:22:17 GMT 40.686127 -8.919922 37,975 11 373 -64
2019-11-05 14:22:14 GMT 40.679169 -8.921814 38,000 11 374 -64
2019-11-05 14:22:08 GMT 40.669434 -8.924457 38,000 11 373 -64
2019-11-05 14:22:02 GMT 40.659794 -8.927141 38,000 11 373 -64
2019-11-05 14:21:55 GMT 40.649460 -8.929950 38,000 11 373 -64
2019-11-05 14:21:51 GMT 40.640846 -8.932322 38,000 11 374 -64
2019-11-05 14:21:46 GMT 40.632935 -8.934509 38,000 11 374 0
2019-11-05 14:21:43 GMT 40.626526 -8.936279 38,000 11 374 0
2019-11-05 14:21:40 GMT 40.622181 -8.937440 38,000 11 375 0
2019-11-05 14:21:37 GMT 40.617947 -8.938626 38,000 11 374 0
2019-11-05 14:21:31 GMT 40.607986 -8.941345 38,000 11 375 0
2019-11-05 14:21:27 GMT 40.602036 -8.942932 38,000 11 375 0
2019-11-05 14:21:21 GMT 40.590012 -8.946242 38,000 11 376 0
2019-11-05 14:21:17 GMT 40.583405 -8.947990 38,000 11 376 0
2019-11-05 14:21:10 GMT 40.572090 -8.951048 38,025 11 377 0
2019-11-05 14:21:06 GMT 40.566055 -8.952698 38,025 11 377 0
2019-11-05 14:20:59 GMT 40.553696 -8.955994 38,025 11 378 -64
2019-11-05 14:20:55 GMT 40.543945 -8.958618 38,025 11 378 -64
2019-11-05 14:20:48 GMT 40.535019 -8.961060 38,025 11 379 -64
2019-11-05 14:20:44 GMT 40.526596 -8.963379 38,025 11 379 0
2019-11-05 14:20:39 GMT 40.519627 -8.965218 38,025 11 379 0
2019-11-05 14:20:35 GMT 40.507942 -8.968402 38,025 11 379 0
2019-11-05 14:20:29 GMT 40.502586 -8.969838 38,025 11 380 -64
2019-11-05 14:20:26 GMT 40.498032 -8.971130 38,050 11 381 0
2019-11-05 14:20:23 GMT 40.491302 -8.972900 38,025 11 380 -64
2019-11-05 14:20:19 GMT 40.484852 -8.974644 38,050 11 380 -64
2019-11-05 14:20:16 GMT 40.480453 -8.975830 38,050 11 380 -64
2019-11-05 14:20:13 GMT 40.472351 -8.978027 38,050 11 380 -64
2019-11-05 14:20:09 GMT 40.462227 -8.980761 38,050 11 380 0
2019-11-05 14:20:06 GMT 40.462227 -8.980761 38,050 11 381 0
2019-11-05 14:20:03 GMT 40.455734 -8.982483 38,050 11 381 0
2019-11-05 14:19:58 GMT 40.448074 -8.984507 38,050 11 381 0
2019-11-05 14:19:54 GMT 40.442722 -8.985942 38,050 11 381 0
2019-11-05 14:19:51 GMT 40.437695 -8.987316 38,050 11 381 0
2019-11-05 14:19:48 GMT 40.428524 -8.989750 38,050 11 381 0
2019-11-05 14:19:45 GMT 40.420670 -8.991821 38,050 11 381 0
2019-11-05 14:19:42 GMT 40.420670 -8.991821 38,050 11 381 0
2019-11-05 14:19:38 GMT 40.412647 -8.993995 38,050 11 381 0
2019-11-05 14:19:35 GMT 40.408833 -8.994994 38,050 11 381 0
2019-11-05 14:19:31 GMT 40.402409 -8.996742 38,050 11 382 0
2019-11-05 14:19:27 GMT 40.394447 -8.998864 38,050 11 382 0
2019-11-05 14:19:23 GMT 40.388626 -9.000427 38,050 11 382 0
2019-11-05 14:19:20 GMT 40.382767 -9.001953 38,050 11 382 0
2019-11-05 14:19:17 GMT 40.376945 -9.003546 38,050 11 382 0
2019-11-05 14:19:14 GMT 40.372429 -9.004732 38,050 11 382 0
2019-11-05 14:19:11 GMT 40.365494 -9.006604 38,050 11 382 64
2019-11-05 14:19:03 GMT 40.354111 -9.009644 38,050 11 384 0
2019-11-05 14:18:59 GMT 40.347382 -9.011475 38,050 11 384 0
2019-11-05 14:18:55 GMT 40.339554 -9.013611 38,025 11 384 0
2019-11-05 14:18:52 GMT 40.335388 -9.014771 38,050 11 384 0
2019-11-05 14:18:49 GMT 40.329182 -9.016405 38,025 11 384 0
2019-11-05 14:18:43 GMT 40.317627 -9.019531 38,025 11 384 0
2019-11-05 14:18:39 GMT 40.311630 -9.021149 38,025 11 383 0
2019-11-05 14:18:35 GMT 40.304508 -9.023084 38,025 11 383 64
2019-11-05 14:18:32 GMT 40.299294 -9.024457 38,025 11 383 0
2019-11-05 14:18:29 GMT 40.293011 -9.026142 38,025 11 383 64
2019-11-05 14:18:25 GMT 40.284863 -9.028327 38,025 11 383 0
2019-11-05 14:18:22 GMT 40.280998 -9.029388 38,025 11 383 0
2019-11-05 14:18:18 GMT 40.274948 -9.031011 38,025 11 383 64
2019-11-05 14:18:14 GMT 40.266998 -9.033142 38,025 11 383 64
2019-11-05 14:18:11 GMT 40.263264 -9.034133 38,025 11 384 64
2019-11-05 14:18:08 GMT 40.256329 -9.036005 38,000 11 384 64
2019-11-05 14:18:03 GMT 40.248734 -9.038025 38,000 11 384 128
2019-11-05 14:18:00 GMT 40.237930 -9.040955 38,000 11 383 128
2019-11-05 14:17:57 GMT 40.237930 -9.040955 38,000 11 383 128
2019-11-05 14:17:53 GMT 40.229652 -9.043121 38,000 11 384 128
2019-11-05 14:17:50 GMT 40.225250 -9.044373 37,975 11 384 128
2019-11-05 14:17:46 GMT 40.220718 -9.045532 37,975 11 384 128
2019-11-05 14:17:42 GMT 40.207401 -9.049114 37,975 11 384 64
2019-11-05 14:17:36 GMT 40.201904 -9.050598 37,975 11 384 64
2019-11-05 14:17:32 GMT 40.193893 -9.052734 37,975 11 384 64
2019-11-05 14:17:29 GMT 40.182907 -9.055664 37,950 11 384 64
2019-11-05 14:17:25 GMT 40.182907 -9.055664 37,950 11 384 64
2019-11-05 14:17:21 GMT 40.175697 -9.057603 37,950 11 384 0
2019-11-05 14:17:18 GMT 40.170254 -9.059039 37,950 11 384 0
2019-11-05 14:17:15 GMT 40.156845 -9.062597 37,975 11 383 -64
2019-11-05 14:17:11 GMT 40.156845 -9.062597 37,950 11 384 0
2019-11-05 14:17:07 GMT 40.152786 -9.063660 37,950 11 383 64
2019-11-05 14:17:04 GMT 40.146416 -9.065344 37,950 11 383 0
2019-11-05 14:17:00 GMT 40.138783 -9.067404 37,950 11 383 0
2019-11-05 14:16:57 GMT 40.134338 -9.068604 37,950 11 383 0
2019-11-05 14:16:54 GMT 40.129120 -9.070007 37,950 11 383 0
2019-11-05 14:16:50 GMT 40.121155 -9.072144 37,950 11 383 0
2019-11-05 14:16:46 GMT 40.116203 -9.073459 37,950 11 383 0
2019-11-05 14:16:43 GMT 40.110992 -9.074894 37,950 11 383 0
2019-11-05 14:16:39 GMT 40.103218 -9.076954 37,950 11 382 0
2019-11-05 14:16:35 GMT 40.096790 -9.078702 37,950 11 382 0
2019-11-05 14:16:32 GMT 40.091251 -9.080200 37,950 11 382 -64
2019-11-05 14:16:28 GMT 40.084690 -9.081948 37,950 11 382 -64
2019-11-05 14:16:25 GMT 40.078537 -9.083618 37,950 11 382 -64
2019-11-05 14:16:22 GMT 40.074261 -9.084757 37,950 11 381 -64
2019-11-05 14:16:18 GMT 40.066589 -9.086853 37,975 11 381 -64
2019-11-05 14:16:15 GMT 40.061737 -9.088135 37,975 11 381 -64
2019-11-05 14:16:12 GMT 40.051895 -9.090759 37,975 11 381 -64
2019-11-05 14:16:09 GMT 40.044003 -9.092872 37,975 11 381 0
2019-11-05 14:16:05 GMT 40.044003 -9.092872 37,975 11 381 0
2019-11-05 14:16:02 GMT 40.038464 -9.094370 37,975 11 381 0
2019-11-05 14:15:55 GMT 40.026810 -9.097473 37,975 11 381 64
2019-11-05 14:15:51 GMT 40.020306 -9.099177 37,975 11 381 0
2019-11-05 14:15:47 GMT 40.012619 -9.101257 37,975 11 382 0
2019-11-05 14:15:44 GMT 40.006897 -9.102722 37,975 11 382 0
2019-11-05 14:15:41 GMT 40.002480 -9.103921 37,975 11 382 0
2019-11-05 14:15:38 GMT 39.998661 -9.104919 37,975 11 382 -64
2019-11-05 14:15:34 GMT 39.991104 -9.106873 37,975 11 382 -64
2019-11-05 14:15:30 GMT 39.984695 -9.108582 37,975 11 382 -64
2019-11-05 14:15:26 GMT 39.974991 -9.111145 37,975 11 382 -64
2019-11-05 14:15:23 GMT 39.970459 -9.112305 37,975 11 382 -64
2019-11-05 14:15:18 GMT 39.963093 -9.114283 37,975 11 383 0
2019-11-05 14:15:13 GMT 39.946838 -9.118591 37,975 11 383 0
2019-11-05 14:15:10 GMT 39.946838 -9.118591 37,975 11 383 0
2019-11-05 14:15:05 GMT 39.938690 -9.120728 38,000 11 383 0
2019-11-05 14:15:02 GMT 39.933533 -9.122086 38,000 11 383 0
2019-11-05 14:14:57 GMT 39.926598 -9.123958 38,000 11 383 0
2019-11-05 14:14:53 GMT 39.920315 -9.125610 38,000 11 384 0
2019-11-05 14:14:50 GMT 39.912678 -9.127686 38,000 11 384 0
2019-11-05 14:14:47 GMT 39.909073 -9.128624 38,000 11 384 0
2019-11-05 14:14:44 GMT 39.896992 -9.131836 38,000 11 384 0
2019-11-05 14:14:41 GMT 39.890945 -9.133400 38,000 11 385 0
2019-11-05 14:14:37 GMT 39.890945 -9.133400 38,000 11 385 0
2019-11-05 14:14:32 GMT 39.883163 -9.135437 38,000 11 385 64
2019-11-05 14:14:29 GMT 39.876041 -9.137329 38,000 11 385 0
2019-11-05 14:14:26 GMT 39.872955 -9.138177 37,975 11 386 0
2019-11-05 14:14:23 GMT 39.865448 -9.140147 37,975 11 386 0
2019-11-05 14:14:20 GMT 39.860870 -9.141341 37,975 11 386 0
2019-11-05 14:14:17 GMT 39.851185 -9.143921 37,975 11 386 0
2019-11-05 14:14:11 GMT 39.846680 -9.145103 38,000 11 387 0
2019-11-05 14:14:08 GMT 39.840103 -9.146851 37,975 11 387 0
2019-11-05 14:14:05 GMT 39.833862 -9.148447 38,000 11 387 0
2019-11-05 14:14:02 GMT 39.829208 -9.149719 38,000 11 387 -64
2019-11-05 14:13:58 GMT 39.823067 -9.151306 38,000 11 388 -64
2019-11-05 14:13:55 GMT 39.817619 -9.152771 38,000 11 388 -64
2019-11-05 14:13:51 GMT 39.810402 -9.154663 38,000 11 388 -64
2019-11-05 14:13:47 GMT 39.803699 -9.156433 38,000 11 388 -64
2019-11-05 14:13:44 GMT 39.798393 -9.157837 38,000 11 389 -64
2019-11-05 14:13:40 GMT 39.791977 -9.159553 38,000 11 389 0
2019-11-05 14:13:37 GMT 39.785980 -9.161105 38,000 11 389 0
2019-11-05 14:13:34 GMT 39.780853 -9.162478 38,000 11 389 0
2019-11-05 14:13:30 GMT 39.773575 -9.164389 38,000 11 390 0
2019-11-05 14:13:27 GMT 39.768265 -9.165822 38,000 11 390 0
2019-11-05 14:13:23 GMT 39.761803 -9.167480 38,000 11 390 0
2019-11-05 14:13:17 GMT 39.750118 -9.170593 38,025 11 392 0
2019-11-05 14:13:14 GMT 39.745510 -9.171814 38,025 11 391 0
2019-11-05 14:13:09 GMT 39.736908 -9.174121 38,000 11 391 0
2019-11-05 14:13:06 GMT 39.730564 -9.175781 38,025 11 393 0
2019-11-05 14:13:03 GMT 39.726059 -9.176987 38,025 11 393 0
2019-11-05 14:13:00 GMT 39.720280 -9.178528 38,000 11 393 0
2019-11-05 14:12:57 GMT 39.714737 -9.179993 38,025 11 393 0
2019-11-05 14:12:52 GMT 39.706833 -9.182063 38,025 11 394 0
2019-11-05 14:12:48 GMT 39.698639 -9.184272 38,025 11 394 0
2019-11-05 14:12:44 GMT 39.691742 -9.186096 38,025 11 394 0
2019-11-05 14:12:41 GMT 39.687271 -9.187317 38,025 11 394 0
2019-11-05 14:12:37 GMT 39.679077 -9.189453 38,025 11 394 0
2019-11-05 14:12:32 GMT 39.670212 -9.191855 38,025 11 394 0
2019-11-05 14:12:29 GMT 39.664856 -9.193228 38,025 11 394 0
2019-11-05 14:12:26 GMT 39.660553 -9.194362 38,025 11 394 0
2019-11-05 14:12:21 GMT 39.651443 -9.196811 38,000 11 395 0
2019-11-05 14:12:18 GMT 39.646679 -9.198059 38,025 11 395 0
2019-11-05 14:12:15 GMT 39.640869 -9.199557 38,025 11 395 0
2019-11-05 14:12:12 GMT 39.634109 -9.201294 38,025 11 395 0
2019-11-05 14:12:08 GMT 39.627731 -9.202960 38,025 11 396 64
2019-11-05 14:12:05 GMT 39.622375 -9.204393 38,025 11 396 64
2019-11-05 14:12:02 GMT 39.616241 -9.205946 37,975 11 396 64
2019-11-05 14:11:58 GMT 39.609344 -9.207764 38,025 11 396 -64
2019-11-05 14:11:55 GMT 39.603573 -9.209290 38,025 11 396 0
2019-11-05 14:11:52 GMT 39.596100 -9.211260 38,025 11 398 0
2019-11-05 14:11:47 GMT 39.590816 -9.212646 38,025 11 398 0
2019-11-05 14:11:44 GMT 39.584297 -9.214355 38,025 11 398 -64
2019-11-05 14:11:41 GMT 39.578201 -9.216003 38,025 11 398 0
2019-11-05 14:11:37 GMT 39.572845 -9.217410 38,025 11 398 0
2019-11-05 14:11:34 GMT 39.565399 -9.219360 38,025 11 398 0
2019-11-05 14:11:30 GMT 39.558369 -9.221252 38,025 11 398 0
2019-11-05 14:11:27 GMT 39.553856 -9.222473 38,025 11 398 64
2019-11-05 14:11:23 GMT 39.546638 -9.224365 38,025 11 398 64
2019-11-05 14:11:20 GMT 39.541122 -9.225829 38,000 11 398 64
2019-11-05 14:11:16 GMT 39.534256 -9.227620 38,025 11 398 64
2019-11-05 14:11:13 GMT 39.527321 -9.229492 38,000 11 398 64
2019-11-05 14:11:10 GMT 39.522617 -9.230713 38,000 11 398 0
2019-11-05 14:11:07 GMT 39.517136 -9.232158 38,000 11 398 0
2019-11-05 14:11:04 GMT 39.512421 -9.233412 38,025 11 399 64
2019-11-05 14:11:01 GMT 39.507626 -9.234619 38,025 11 399 64
2019-11-05 14:10:58 GMT 39.501755 -9.236158 38,000 11 399 0
2019-11-05 14:10:55 GMT 39.495525 -9.237793 38,000 11 399 -64
2019-11-05 14:10:52 GMT 39.488632 -9.239624 38,000 11 398 0
2019-11-05 14:10:49 GMT 39.484955 -9.240577 38,000 11 399 0
2019-11-05 14:10:45 GMT 39.476902 -9.242737 38,000 11 398 0
2019-11-05 14:10:40 GMT 39.467606 -9.245174 38,000 11 398 -64
2019-11-05 14:10:37 GMT 39.463169 -9.246338 38,000 11 398 0
2019-11-05 14:10:33 GMT 39.457024 -9.247925 38,025 11 399 0
2019-11-05 14:10:29 GMT 39.448792 -9.250070 38,025 11 398 0
2019-11-05 14:10:26 GMT 39.443478 -9.251465 38,000 11 398 0
2019-11-05 14:10:23 GMT 39.438858 -9.252697 38,025 11 399 0
2019-11-05 14:10:20 GMT 39.433563 -9.254089 38,025 11 399 0
2019-11-05 14:10:17 GMT 39.428303 -9.255432 38,025 11 399 0
2019-11-05 14:10:14 GMT 39.422714 -9.256958 38,025 11 398 0
2019-11-05 14:10:11 GMT 39.415127 -9.258911 38,025 11 398 0
2019-11-05 14:10:07 GMT 39.409355 -9.260437 38,025 11 398 0
2019-11-05 14:10:03 GMT 39.401581 -9.262451 38,025 11 398 0
2019-11-05 14:10:00 GMT 39.396057 -9.263863 38,000 11 399 0
2019-11-05 14:09:56 GMT 39.389740 -9.265535 38,025 11 399 0
2019-11-05 14:09:53 GMT 39.383560 -9.267147 38,025 11 399 0
2019-11-05 14:09:50 GMT 39.377514 -9.268738 38,025 11 399 0
2019-11-05 14:09:46 GMT 39.370857 -9.270508 38,025 11 398 0
2019-11-05 14:09:43 GMT 39.365341 -9.271924 38,025 11 398 0
2019-11-05 14:09:39 GMT 39.357925 -9.273894 38,025 11 398 0
2019-11-05 14:09:34 GMT 39.348045 -9.276428 38,025 11 398 0
2019-11-05 14:09:28 GMT 39.338196 -9.279029 38,025 11 398 0
2019-11-05 14:09:25 GMT 39.331429 -9.280762 38,025 11 398 -64
2019-11-05 14:09:21 GMT 39.326351 -9.282104 38,025 11 398 0
2019-11-05 14:09:18 GMT 39.319279 -9.283875 38,025 11 398 0
2019-11-05 14:09:14 GMT 39.313568 -9.285358 38,025 11 398 0
2019-11-05 14:09:11 GMT 39.308167 -9.286791 38,025 11 398 0
2019-11-05 14:09:06 GMT 39.299835 -9.288940 38,025 11 398 0
2019-11-05 14:09:02 GMT 39.291626 -9.291077 38,025 11 398 0
2019-11-05 14:08:59 GMT 39.285992 -9.292542 38,025 11 398 0
2019-11-05 14:08:56 GMT 39.280289 -9.294016 38,025 11 398 64
2019-11-05 14:08:51 GMT 39.272587 -9.296021 38,025 11 399 0
2019-11-05 14:08:48 GMT 39.266922 -9.297538 38,025 11 399 0
2019-11-05 14:08:45 GMT 39.261368 -9.298950 38,025 11 399 0
2019-11-05 14:08:41 GMT 39.253693 -9.300942 38,025 11 399 0
2019-11-05 14:08:35 GMT 39.242931 -9.303772 38,025 11 399 0
2019-11-05 14:08:31 GMT 39.235481 -9.305725 38,025 11 398 0
2019-11-05 14:08:25 GMT 39.223007 -9.308960 38,025 11 399 0
2019-11-05 14:08:21 GMT 39.210346 -9.312317 38,025 11 399 0
2019-11-05 14:08:14 GMT 39.205132 -9.313660 38,000 11 399 0
2019-11-05 14:08:09 GMT 39.196198 -9.316048 38,025 11 399 0
2019-11-05 14:08:03 GMT 39.185852 -9.318735 38,000 11 398 64
2019-11-05 14:08:00 GMT 39.179619 -9.320313 38,000 11 398 64
2019-11-05 14:07:52 GMT 39.164886 -9.324168 38,000 11 398 0
2019-11-05 14:07:49 GMT 39.160301 -9.325378 38,000 11 398 0
2019-11-05 14:07:39 GMT 39.134277 -9.332092 38,000 11 397 0
2019-11-05 14:07:32 GMT 39.128769 -9.333543 38,000 11 397 0
2019-11-05 14:07:29 GMT 39.122921 -9.335022 38,000 11 397 0
2019-11-05 14:07:22 GMT 39.110630 -9.338196 37,975 11 397 0
2019-11-05 14:07:19 GMT 39.105228 -9.339600 37,975 11 397 0
2019-11-05 14:07:11 GMT 39.089081 -9.343753 37,975 11 397 64
2019-11-05 14:07:08 GMT 39.083584 -9.345154 37,975 11 397 0
2019-11-05 14:06:57 GMT 39.058640 -9.351634 37,975 11 397 0
2019-11-05 14:06:51 GMT 39.053139 -9.353027 38,000 11 397 0
2019-11-05 14:06:48 GMT 39.049320 -9.354004 38,000 11 397 -64
2019-11-05 14:06:40 GMT 39.035076 -9.357666 38,000 11 397 0
2019-11-05 14:06:37 GMT 39.029617 -9.359098 37,975 11 397 0
2019-11-05 14:06:29 GMT 39.013733 -9.363158 38,000 11 396 0
2019-11-05 14:06:26 GMT 39.010483 -9.363994 37,975 11 396 0
2019-11-05 14:06:19 GMT 38.996902 -9.367493 38,000 11 396 0
2019-11-05 14:06:14 GMT 38.981506 -9.371457 37,975 11 396 0
2019-11-05 14:06:08 GMT 38.976837 -9.372651 37,975 11 396 0
2019-11-05 14:06:05 GMT 38.972534 -9.373726 37,975 11 396 0
2019-11-05 14:05:57 GMT 38.957245 -9.377667 38,000 11 396 0
2019-11-05 14:05:47 GMT 38.933594 -9.383789 37,975 11 396 0
2019-11-05 14:05:44 GMT 38.933594 -9.383789 37,975 11 396 0
2019-11-05 14:05:37 GMT 38.921814 -9.386802 37,975 11 396 0
2019-11-05 14:05:33 GMT 38.914131 -9.388794 38,000 11 396 0
2019-11-05 14:05:29 GMT 38.908405 -9.390259 37,975 11 396 0
2019-11-05 14:05:26 GMT 38.903008 -9.391663 37,975 11 396 0
2019-11-05 14:05:23 GMT 38.897606 -9.393066 38,000 11 396 0
2019-11-05 14:05:19 GMT 38.888168 -9.395460 37,975 11 396 0
2019-11-05 14:05:16 GMT 38.879517 -9.397729 38,000 11 396 0
2019-11-05 14:05:13 GMT 38.879517 -9.397729 37,975 11 396 0
2019-11-05 14:05:05 GMT 38.864880 -9.401489 37,975 11 396 0
2019-11-05 14:04:57 GMT 38.849609 -9.405457 37,975 11 396 -64
2019-11-05 14:04:51 GMT 38.831223 -9.410156 38,000 11 396 0
2019-11-05 14:04:45 GMT 38.826942 -9.411316 38,000 11 396 0
2019-11-05 14:04:42 GMT 38.824055 -9.412048 38,000 11 396 -64
2019-11-05 14:04:34 GMT 38.808838 -9.415940 38,000 11 396 -64
2019-11-05 14:04:31 GMT 38.804169 -9.417134 38,000 11 396 -64
2019-11-05 14:04:24 GMT 38.788147 -9.421254 38,000 11 396 -64
2019-11-05 14:04:21 GMT 38.784626 -9.422180 38,000 11 397 -64
2019-11-05 14:04:15 GMT 38.774895 -9.424683 38,000 11 397 0
2019-11-05 14:04:12 GMT 38.754879 -9.429810 38,000 11 397 0
2019-11-05 14:04:04 GMT 38.754879 -9.429810 38,025 11 397 0
2019-11-05 14:04:01 GMT 38.749664 -9.431091 38,025 11 397 0
2019-11-05 14:03:55 GMT 38.737106 -9.434330 38,025 11 397 0
2019-11-05 14:03:50 GMT 38.729004 -9.436420 38,025 11 397 64
2019-11-05 14:03:45 GMT 38.720428 -9.438599 38,025 11 398 64
2019-11-05 14:03:42 GMT 38.714657 -9.440063 38,000 11 398 64
2019-11-05 14:03:33 GMT 38.699669 -9.443909 38,000 11 398 64
2019-11-05 14:03:27 GMT 38.680813 -9.448730 38,000 11 399 0
2019-11-05 14:03:22 GMT 38.677094 -9.449675 38,000 11 399 0
2019-11-05 14:03:19 GMT 38.672665 -9.450806 38,000 11 399 0
2019-11-05 14:03:13 GMT 38.663261 -9.453247 38,000 11 399 0
2019-11-05 14:03:10 GMT 38.651550 -9.456243 38,000 11 399 0
2019-11-05 14:03:01 GMT 38.638687 -9.459587 38,000 11 399 -64
2019-11-05 14:02:58 GMT 38.634029 -9.460754 38,025 11 399 0
2019-11-05 14:02:53 GMT 38.625324 -9.463013 38,025 11 400 0
2019-11-05 14:02:48 GMT 38.615250 -9.465617 38,025 11 400 0
2019-11-05 14:02:43 GMT 38.605724 -9.468018 38,025 11 400 0
2019-11-05 14:02:40 GMT 38.601288 -9.469200 38,025 11 400 0
2019-11-05 14:02:37 GMT 38.596645 -9.470337 38,000 11 400 0
2019-11-05 14:02:32 GMT 38.587280 -9.472782 38,000 11 400 0
2019-11-05 14:02:26 GMT 38.577560 -9.475220 38,000 11 400 0
2019-11-05 14:02:21 GMT 38.568375 -9.477559 38,025 11 401 0
2019-11-05 14:02:16 GMT 38.558533 -9.480067 38,000 11 401 64
2019-11-05 14:02:11 GMT 38.549606 -9.482336 38,025 11 401 0
2019-11-05 14:02:08 GMT 38.544228 -9.483704 38,025 11 401 64
2019-11-05 14:02:05 GMT 38.539478 -9.484924 38,025 11 401 64
2019-11-05 14:02:01 GMT 38.531471 -9.486938 38,025 11 402 0
2019-11-05 14:01:58 GMT 38.525841 -9.488403 38,000 11 402 0
2019-11-05 14:01:55 GMT 38.520348 -9.489807 38,000 11 402 0
2019-11-05 14:01:52 GMT 38.514854 -9.491150 38,000 11 402 0
2019-11-05 14:01:48 GMT 38.505844 -9.493441 38,000 11 402 0
2019-11-05 14:01:45 GMT 38.501450 -9.494576 38,000 11 403 0
2019-11-05 14:01:42 GMT 38.496792 -9.495789 38,000 11 403 0
2019-11-05 14:01:39 GMT 38.491112 -9.497253 38,000 11 403 0
2019-11-05 14:01:36 GMT 38.486179 -9.498474 38,000 11 403 0
2019-11-05 14:01:33 GMT 38.479057 -9.500305 38,000 11 403 0
2019-11-05 14:01:30 GMT 38.475494 -9.501263 38,000 11 402 0
2019-11-05 14:01:26 GMT 38.466202 -9.503592 38,000 11 402 0
2019-11-05 14:01:23 GMT 38.457047 -9.505920 38,000 11 402 0
2019-11-05 14:01:20 GMT 38.457047 -9.505920 38,000 11 402 0
2019-11-05 14:01:13 GMT 38.443443 -9.509399 38,000 11 402 0
2019-11-05 14:01:09 GMT 38.436996 -9.511055 38,000 11 402 0
2019-11-05 14:01:05 GMT 38.428574 -9.513145 38,000 11 402 0
2019-11-05 14:01:01 GMT 38.421936 -9.514832 38,000 11 402 0
2019-11-05 14:00:58 GMT 38.414951 -9.516602 38,000 11 402 0
2019-11-05 14:00:54 GMT 38.409508 -9.518041 38,000 11 402 0
2019-11-05 14:00:51 GMT 38.403763 -9.519478 38,000 11 402 64
2019-11-05 14:00:48 GMT 38.398380 -9.520847 38,000 11 402 0
2019-11-05 14:00:45 GMT 38.391312 -9.522634 38,000 11 402 0
2019-11-05 14:00:42 GMT 38.385681 -9.524095 38,000 11 402 0
2019-11-05 14:00:37 GMT 38.378456 -9.525923 38,000 11 402 0
2019-11-05 14:00:32 GMT 38.367146 -9.528789 38,000 11 402 0
2019-11-05 14:00:29 GMT 38.362473 -9.529997 38,000 11 402 0
2019-11-05 14:00:23 GMT 38.353085 -9.532371 38,000 11 402 0
2019-11-05 14:00:20 GMT 38.347321 -9.533795 38,000 11 402 0
2019-11-05 14:00:13 GMT 38.334091 -9.537148 38,000 11 401 0
2019-11-05 14:00:10 GMT 38.328186 -9.538646 38,000 11 401 0
2019-11-05 14:00:07 GMT 38.324268 -9.539656 38,000 11 401 0
2019-11-05 14:00:03 GMT 38.314400 -9.542163 38,000 11 401 0
2019-11-05 14:00:00 GMT 38.308823 -9.543554 38,000 11 401 64
2019-11-05 13:59:57 GMT 38.306023 -9.544253 38,000 11 401 64
2019-11-05 13:59:53 GMT 38.296200 -9.546761 38,000 11 401 0
2019-11-05 13:59:50 GMT 38.286072 -9.549340 38,000 11 401 -64
2019-11-05 13:59:47 GMT 38.286072 -9.549340 38,000 11 401 -64
2019-11-05 13:59:42 GMT 38.276962 -9.551677 38,000 11 401 64
2019-11-05 13:59:39 GMT 38.273388 -9.552553 38,000 11 401 0
2019-11-05 13:59:36 GMT 38.266388 -9.554365 38,000 11 401 -64
2019-11-05 13:59:32 GMT 38.257935 -9.556493 38,000 11 401 128
2019-11-05 13:59:28 GMT 38.249741 -9.558583 38,000 11 401 -128
2019-11-05 13:59:22 GMT 38.238613 -9.561389 38,000 11 400 64
2019-11-05 13:59:19 GMT 38.235912 -9.562046 38,000 11 400 0
2019-11-05 13:59:14 GMT 38.220272 -9.565987 38,000 11 400 0
2019-11-05 13:59:10 GMT 38.217899 -9.566584 38,000 11 400 64
2019-11-05 13:59:06 GMT 38.210403 -9.568435 38,000 11 401 64
2019-11-05 13:59:00 GMT 38.199509 -9.571182 38,000 11 401 0
2019-11-05 13:58:54 GMT 38.188942 -9.573809 38,000 11 401 64
2019-11-05 13:58:51 GMT 38.182846 -9.575345 38,000 11 401 0
2019-11-05 13:58:47 GMT 38.177444 -9.576734 38,000 11 401 -64
2019-11-05 13:58:43 GMT 38.170807 -9.578383 38,000 11 401 0
2019-11-05 13:58:40 GMT 38.163712 -9.580195 38,000 11 401 -64
2019-11-05 13:58:37 GMT 38.159180 -9.581364 38,000 11 401 -64
2019-11-05 13:58:32 GMT 38.149887 -9.583701 38,000 11 400 0
2019-11-05 13:58:28 GMT 38.142857 -9.585452 38,000 11 402 0
2019-11-05 13:58:25 GMT 38.137779 -9.586765 38,000 11 401 -64
2019-11-05 13:58:22 GMT 38.130470 -9.588616 38,000 11 400 0
2019-11-05 13:58:18 GMT 38.124023 -9.590246 38,000 11 400 0
2019-11-05 13:58:14 GMT 38.117390 -9.591960 38,000 11 401 0
2019-11-05 13:58:05 GMT 38.093445 -9.598019 38,000 11 401 0
2019-11-05 13:57:58 GMT 38.088730 -9.599187 38,000 11 401 64
2019-11-05 13:57:55 GMT 38.083420 -9.600531 38,000 11 401 0
2019-11-05 13:57:51 GMT 38.067764 -9.604505 38,000 11 401 0
2019-11-05 13:57:47 GMT 38.067764 -9.604505 38,000 11 401 0
2019-11-05 13:57:44 GMT 38.063484 -9.605574 38,000 11 401 0
2019-11-05 13:57:37 GMT 38.048813 -9.609239 38,000 11 401 -64
2019-11-05 13:57:34 GMT 38.044968 -9.610174 38,000 11 401 -64
2019-11-05 13:57:28 GMT 38.032665 -9.613216 38,000 11 401 -64
2019-11-05 13:57:22 GMT 38.015991 -9.617420 38,000 11 401 0
2019-11-05 13:57:17 GMT 38.012695 -9.618238 38,000 11 401 0
2019-11-05 13:57:14 GMT 38.007614 -9.619524 38,000 11 401 0
2019-11-05 13:57:04 GMT 37.989166 -9.624082 38,000 11 401 64
2019-11-05 13:56:57 GMT 37.970146 -9.628860 38,000 11 401 0
2019-11-05 13:56:54 GMT 37.970146 -9.628860 38,000 11 401 0
2019-11-05 13:56:47 GMT 37.956940 -9.632146 38,000 11 401 0
2019-11-05 13:56:41 GMT 37.940872 -9.636179 38,000 11 402 -64
2019-11-05 13:56:33 GMT 37.931461 -9.638533 38,000 11 402 -64
2019-11-05 13:56:26 GMT 37.918945 -9.641672 38,000 11 402 0
2019-11-05 13:56:22 GMT 37.912399 -9.643308 38,000 11 402 0
2019-11-05 13:56:12 GMT 37.895477 -9.647549 38,000 11 402 0
2019-11-05 13:56:09 GMT 37.890030 -9.648922 38,000 11 402 0
2019-11-05 13:56:02 GMT 37.876602 -9.652307 38,000 11 402 0
2019-11-05 13:55:59 GMT 37.870850 -9.653758 38,000 11 402 64
2019-11-05 13:55:55 GMT 37.862240 -9.655908 38,000 11 402 64
2019-11-05 13:55:51 GMT 37.856419 -9.657400 38,000 11 402 64
2019-11-05 13:55:48 GMT 37.850925 -9.658774 38,000 11 402 64
2019-11-05 13:55:44 GMT 37.843060 -9.660744 38,000 11 402 64
2019-11-05 13:55:40 GMT 37.837326 -9.662183 37,975 11 402 64
2019-11-05 13:55:37 GMT 37.830257 -9.663909 38,000 11 402 64
2019-11-05 13:55:33 GMT 37.823593 -9.665631 37,975 11 403 64
2019-11-05 13:55:30 GMT 37.818100 -9.666975 37,975 11 403 0
2019-11-05 13:55:25 GMT 37.809772 -9.669043 37,975 11 403 0
2019-11-05 13:55:22 GMT 37.803535 -9.670596 37,975 11 403 -64
2019-11-05 13:55:19 GMT 37.798229 -9.671909 37,975 11 403 -64
2019-11-05 13:55:13 GMT 37.784870 -9.675253 38,000 11 403 0
2019-11-05 13:55:09 GMT 37.780746 -9.676267 38,000 11 403 0
2019-11-05 13:55:03 GMT 37.769394 -9.679130 37,975 11 403 0
2019-11-05 13:55:00 GMT 37.761032 -9.681164 37,975 11 403 0
2019-11-05 13:54:52 GMT 37.749489 -9.684090 37,975 11 403 0
2019-11-05 13:54:49 GMT 37.743759 -9.685500 37,975 11 403 0
2019-11-05 13:54:42 GMT 37.729980 -9.688948 37,975 11 403 0
2019-11-05 13:54:39 GMT 37.724026 -9.690419 37,975 11 403 0
2019-11-05 13:54:29 GMT 37.703869 -9.695494 37,975 11 404 0
2019-11-05 13:54:24 GMT 37.695694 -9.697538 37,975 11 404 0
2019-11-05 13:54:18 GMT 37.686085 -9.699913 37,975 11 404 0
2019-11-05 13:54:14 GMT 37.678436 -9.701804 37,975 11 404 0
2019-11-05 13:54:07 GMT 37.659641 -9.706481 37,975 11 406 0
2019-11-05 13:54:03 GMT 37.659641 -9.706481 37,975 11 404 0
2019-11-05 13:53:56 GMT 37.645432 -9.710044 37,975 11 404 -64
2019-11-05 13:53:53 GMT 37.640369 -9.711317 38,000 11 406 0
2019-11-05 13:53:47 GMT 37.629089 -9.714135 38,000 11 404 -64
2019-11-05 13:53:44 GMT 37.625099 -9.715138 38,000 11 404 -64
2019-11-05 13:53:41 GMT 37.619339 -9.716531 38,000 11 404 -64
2019-11-05 13:53:35 GMT 37.608574 -9.719198 38,000 11 404 0
2019-11-05 13:53:32 GMT 37.599216 -9.721587 38,000 11 404 0
2019-11-05 13:53:25 GMT 37.589115 -9.724095 38,000 11 405 0
2019-11-05 13:53:22 GMT 37.582645 -9.725707 38,000 11 405 0
2019-11-05 13:53:15 GMT 37.569855 -9.728861 38,000 11 405 -64
2019-11-05 13:53:11 GMT 37.563583 -9.730439 38,000 11 405 0
2019-11-05 13:53:04 GMT 37.550354 -9.733711 38,025 11 406 0
2019-11-05 13:53:01 GMT 37.544147 -9.735200 38,000 11 406 0
2019-11-05 13:52:55 GMT 37.532696 -9.738066 38,025 11 406 0
2019-11-05 13:52:50 GMT 37.525223 -9.739906 38,025 11 407 -64
2019-11-05 13:52:44 GMT 37.512726 -9.742962 38,025 11 407 0
2019-11-05 13:52:41 GMT 37.504951 -9.744873 38,025 11 407 0
2019-11-05 13:52:34 GMT 37.493870 -9.747620 38,000 11 407 64
2019-11-05 13:52:28 GMT 37.476929 -9.751769 38,025 11 408 0
2019-11-05 13:52:22 GMT 37.472443 -9.752879 38,025 11 408 -64
2019-11-05 13:52:19 GMT 37.467453 -9.754106 38,025 11 408 0
2019-11-05 13:52:13 GMT 37.453835 -9.757471 38,025 11 408 0
2019-11-05 13:52:10 GMT 37.448364 -9.758781 38,025 11 408 -64
2019-11-05 13:52:01 GMT 37.434586 -9.762229 38,025 11 409 0
2019-11-05 13:51:58 GMT 37.428371 -9.763741 38,025 11 409 0
2019-11-05 13:51:47 GMT 37.400208 -9.770761 38,025 11 409 0
2019-11-05 13:51:42 GMT 37.390686 -9.773099 38,025 11 409 0
2019-11-05 13:51:39 GMT 37.390686 -9.773099 38,000 11 410 0
2019-11-05 13:51:31 GMT 37.377213 -9.776459 38,000 11 410 64
2019-11-05 13:51:28 GMT 37.370956 -9.778007 38,000 11 410 64
2019-11-05 13:51:20 GMT 37.357800 -9.781295 38,000 11 410 64
2019-11-05 13:51:17 GMT 37.352142 -9.782682 38,000 11 410 64
2019-11-05 13:51:11 GMT 37.339050 -9.785955 38,000 11 411 0
2019-11-05 13:51:05 GMT 37.321701 -9.790221 38,000 11 411 0
2019-11-05 13:50:59 GMT 37.318600 -9.790968 38,000 11 411 0
2019-11-05 13:50:56 GMT 37.312912 -9.792383 38,000 11 411 0
2019-11-05 13:50:49 GMT 37.298771 -9.795864 38,000 11 411 0
2019-11-05 13:50:39 GMT 37.279919 -9.800521 38,000 11 411 0
2019-11-05 13:50:36 GMT 37.274654 -9.801835 38,000 11 411 0
2019-11-05 13:50:29 GMT 37.260361 -9.805356 38,000 11 411 -64
2019-11-05 13:50:26 GMT 37.253754 -9.806970 38,000 11 411 -64
2019-11-05 13:50:18 GMT 37.240627 -9.810194 38,000 11 411 -64
2019-11-05 13:50:15 GMT 37.235138 -9.811551 38,000 11 411 -64
2019-11-05 13:50:08 GMT 37.221588 -9.814911 38,000 11 411 0
2019-11-05 13:50:05 GMT 37.215397 -9.816404 38,025 11 411 0
2019-11-05 13:49:57 GMT 37.202225 -9.819674 38,025 11 411 0
2019-11-05 13:49:54 GMT 37.195862 -9.821193 38,000 11 411 0
2019-11-05 13:49:46 GMT 37.181923 -9.824584 38,025 11 411 64
2019-11-05 13:49:43 GMT 37.176338 -9.825957 38,025 11 411 0
2019-11-05 13:49:36 GMT 37.163445 -9.829121 38,025 11 411 64
2019-11-05 13:49:33 GMT 37.156631 -9.830835 38,000 11 411 -64
2019-11-05 13:49:29 GMT 37.149902 -9.832471 38,000 11 411 -64
2019-11-05 13:49:26 GMT 37.143906 -9.833991 38,000 11 411 0
2019-11-05 13:49:23 GMT 37.137360 -9.835569 38,000 11 411 0
2019-11-05 13:49:19 GMT 37.131088 -9.837122 38,000 11 412 0
2019-11-05 13:49:15 GMT 37.124340 -9.838794 38,000 11 412 -64
2019-11-05 13:49:10 GMT 37.114239 -9.841242 38,000 11 412 0
2019-11-05 13:49:05 GMT 37.104694 -9.843631 38,025 11 412 -64
2019-11-05 13:49:00 GMT 37.094467 -9.846146 38,025 11 412 0
2019-11-05 13:48:57 GMT 37.089798 -9.847256 38,025 11 412 0
2019-11-05 13:48:54 GMT 37.085312 -9.848367 38,025 11 412 0
2019-11-05 13:48:51 GMT 37.077621 -9.850295 38,025 11 412 0
2019-11-05 13:48:48 GMT 37.072853 -9.851452 38,025 11 412 0
2019-11-05 13:48:43 GMT 37.064713 -9.853451 38,025 11 412 0
2019-11-05 13:48:37 GMT 37.052975 -9.856289 38,025 11 412 0
2019-11-05 13:48:33 GMT 37.046356 -9.857950 38,025 11 412 0
2019-11-05 13:48:30 GMT 37.039764 -9.859528 38,025 11 412 0
2019-11-05 13:48:26 GMT 37.032772 -9.861245 38,025 11 412 0
2019-11-05 13:48:22 GMT 37.023880 -9.863385 38,025 10 412 0
2019-11-05 13:48:16 GMT 37.013535 -9.865898 38,025 11 412 0
2019-11-05 13:48:12 GMT 37.006622 -9.867534 38,025 11 412 0
2019-11-05 13:48:05 GMT 36.992935 -9.870865 38,025 11 413 0
2019-11-05 13:48:02 GMT 36.986824 -9.872350 38,025 11 413 0
2019-11-05 13:47:51 GMT 36.966476 -9.877352 38,025 11 413 0
2019-11-05 13:47:42 GMT 36.948372 -9.881724 38,025 11 412 0
2019-11-05 13:47:32 GMT 36.929050 -9.886501 38,025 11 413 64
2019-11-05 13:47:29 GMT 36.924908 -9.887516 38,025 11 413 64
2019-11-05 13:47:21 GMT 36.909363 -9.891338 38,025 11 413 64
2019-11-05 13:47:18 GMT 36.904175 -9.892604 38,025 11 413 64
2019-11-05 13:47:11 GMT 36.889622 -9.896174 38,000 11 413 0
2019-11-05 13:47:05 GMT 36.873596 -9.900143 38,000 11 413 0
2019-11-05 13:46:59 GMT 36.868698 -9.901311 38,000 11 413 64
2019-11-05 13:46:56 GMT 36.862019 -9.902921 38,000 11 413 0
2019-11-05 13:46:48 GMT 36.849075 -9.906103 38,000 11 413 0
2019-11-05 13:46:43 GMT 36.836880 -9.909084 38,000 11 413 0
2019-11-05 13:46:38 GMT 36.829945 -9.910778 38,000 11 413 0
2019-11-05 13:46:33 GMT 36.817932 -9.913700 38,000 11 413 64
2019-11-05 13:46:28 GMT 36.797195 -9.918766 37,975 11 413 64
2019-11-05 13:46:22 GMT 36.797195 -9.918766 37,975 11 413 0
2019-11-05 13:46:17 GMT 36.789871 -9.920540 37,975 11 413 64
2019-11-05 13:46:11 GMT 36.778244 -9.923344 37,975 11 412 64
2019-11-05 13:46:07 GMT 36.770554 -9.925175 37,975 11 412 0
2019-11-05 13:46:00 GMT 36.757599 -9.928322 37,975 11 412 64
2019-11-05 13:45:57 GMT 36.752060 -9.929654 37,975 11 412 64
2019-11-05 13:45:49 GMT 36.735306 -9.933701 37,975 11 412 0
2019-11-05 13:45:45 GMT 36.730507 -9.934855 37,975 11 412 0
2019-11-05 13:45:38 GMT 36.716450 -9.938244 37,975 11 412 0
2019-11-05 13:45:35 GMT 36.711189 -9.939530 37,975 11 412 0
2019-11-05 13:45:27 GMT 36.696011 -9.943153 37,975 11 412 0
2019-11-05 13:45:24 GMT 36.691124 -9.944322 37,975 11 412 0
2019-11-05 13:45:14 GMT 36.672684 -9.948807 37,975 11 412 0
2019-11-05 13:45:06 GMT 36.656021 -9.952869 37,975 11 412 0
2019-11-05 13:44:55 GMT 36.627022 -9.959925 37,975 11 413 0
2019-11-05 13:44:44 GMT 36.615692 -9.962654 38,000 11 412 0
2019-11-05 13:44:33 GMT 36.595135 -9.967638 38,000 11 413 0
2019-11-05 13:44:25 GMT 36.579212 -9.971554 38,000 11 413 0
2019-11-05 13:44:14 GMT 36.554585 -9.977456 38,000 11 413 0
2019-11-05 13:44:02 GMT 36.537502 -9.981605 38,000 11 413 0
2019-11-05 13:43:54 GMT 36.516785 -9.986572 38,000 10 414 0
2019-11-05 13:43:43 GMT 36.500519 -9.990520 38,000 10 414 0
2019-11-05 13:43:40 GMT 36.496170 -9.991550 38,000 10 414 0
2019-11-05 13:43:34 GMT 36.481888 -9.994984 38,000 10 414 0
2019-11-05 13:43:30 GMT 36.477173 -9.996071 38,000 10 415 64
2019-11-05 13:43:23 GMT 36.462662 -9.999561 38,000 10 415 64
2019-11-05 13:43:20 GMT 36.458038 -10.000656 38,000 10 415 0
2019-11-05 13:43:11 GMT 36.440002 -10.004997 38,000 10 415 0
2019-11-05 13:43:00 GMT 36.420364 -10.009689 38,000 10 416 0
2019-11-05 13:42:50 GMT 36.400497 -10.014439 38,000 11 416 0
2019-11-05 13:42:40 GMT 36.381546 -10.019016 38,000 11 416 0
2019-11-05 13:42:29 GMT 36.361954 -10.023739 38,000 11 416 64
2019-11-05 13:42:26 GMT 36.353165 -10.025883 38,000 11 417 0
2019-11-05 13:42:18 GMT 36.341099 -10.028823 38,000 11 417 0
2019-11-05 13:42:15 GMT 36.335045 -10.030284 38,000 11 417 -64
2019-11-05 13:42:09 GMT 36.322521 -10.033323 38,000 11 418 0
2019-11-05 13:42:05 GMT 36.315865 -10.034959 38,000 11 418 0
2019-11-05 13:41:58 GMT 36.302738 -10.038115 38,000 11 418 -64
2019-11-05 13:41:48 GMT 36.283138 -10.042848 38,000 11 418 0
2019-11-05 13:41:37 GMT 36.263214 -10.047640 38,000 11 418 0
2019-11-05 13:41:26 GMT 36.242687 -10.052549 38,000 11 417 0
2019-11-05 13:41:17 GMT 36.224213 -10.056953 38,000 10 416 0
2019-11-05 13:41:06 GMT 36.203796 -10.061874 38,000 10 415 -64
2019-11-05 13:40:56 GMT 36.185055 -10.066340 38,000 10 413 0
2019-11-05 13:40:45 GMT 36.165222 -10.071073 38,000 10 411 128
2019-11-05 13:40:34 GMT 36.143623 -10.076158 37,950 10 408 128
2019-11-05 13:40:25 GMT 36.126911 -10.080073 37,950 10 407 0
2019-11-05 13:40:14 GMT 36.107452 -10.084631 37,950 10 407 0
2019-11-05 13:40:04 GMT 36.088783 -10.089072 37,950 10 406 -64
2019-11-05 13:39:54 GMT 36.069672 -10.093632 37,950 10 406 0
2019-11-05 13:39:43 GMT 36.050053 -10.098306 37,950 10 405 0
2019-11-05 13:39:33 GMT 36.031433 -10.102747 37,950 10 406 -64
2019-11-05 13:39:23 GMT 36.012207 -10.107305 37,950 10 406 -128
2019-11-05 13:39:12 GMT 35.992607 -10.111980 37,975 11 407 -128
2019-11-05 13:39:02 GMT 35.973495 -10.116577 37,975 11 407 0
2019-11-05 13:38:51 GMT 35.953922 -10.121272 37,975 11 408 -64
2019-11-05 13:38:41 GMT 35.934792 -10.125888 38,000 11 409 -192
2019-11-05 13:38:30 GMT 35.915543 -10.130539 38,050 11 410 -64
2019-11-05 13:38:20 GMT 35.895767 -10.135288 38,050 11 410 0
2019-11-05 13:38:10 GMT 35.877319 -10.139751 38,050 11 411 0
2019-11-05 13:37:59 GMT 35.857498 -10.144558 38,050 11 411 0
2019-11-05 13:37:49 GMT 35.838333 -10.149205 38,050 11 412 0
2019-11-05 13:37:39 GMT 35.818909 -10.153885 38,050 10 412 0
2019-11-05 13:37:34 GMT 35.810402 -10.155925 38,050 10 412 0
2019-11-05 13:37:29 GMT 35.799591 -10.158463 38,050 10 413 64
2019-11-05 13:37:23 GMT 35.789734 -10.160776 38,050 10 412 64
2019-11-05 13:37:18 GMT 35.778946 -10.163212 38,050 10 412 64
2019-11-05 13:37:08 GMT 35.760452 -10.167262 38,025 9 411 64
2019-11-05 13:37:02 GMT 35.750381 -10.169392 38,025 10 412 128
2019-11-05 13:36:57 GMT 35.740154 -10.171704 38,000 12 414 128
2019-11-05 13:36:51 GMT 35.729679 -10.174625 38,000 16 418 128
2019-11-05 13:36:47 GMT 35.721722 -10.177606 38,000 20 422 64
2019-11-05 13:36:37 GMT 35.702774 -10.187187 37,975 26 427 64
2019-11-05 13:36:26 GMT 35.684189 -10.198689 37,975 26 427 64
2019-11-05 13:36:15 GMT 35.665577 -10.210214 37,950 26 427 64
2019-11-05 13:36:05 GMT 35.646423 -10.222092 37,950 26 426 0
2019-11-05 13:35:55 GMT 35.628708 -10.233005 37,950 26 425 -64
2019-11-05 13:35:44 GMT 35.610973 -10.243991 37,950 26 425 -64
2019-11-05 13:35:34 GMT 35.592453 -10.255394 37,975 26 424 -64
2019-11-05 13:35:24 GMT 35.574615 -10.266373 37,975 26 424 -64
2019-11-05 13:35:13 GMT 35.556412 -10.277593 37,975 26 423 -64
2019-11-05 13:35:03 GMT 35.538212 -10.288813 38,000 26 423 -64
2019-11-05 13:34:52 GMT 35.519302 -10.300541 38,000 26 422 -64
2019-11-05 13:34:41 GMT 35.500504 -10.312071 38,000 26 422 0
2019-11-05 13:34:30 GMT 35.481323 -10.323934 38,000 26 422 64
2019-11-05 13:34:21 GMT 35.465332 -10.333729 38,000 26 422 0
2019-11-05 13:34:11 GMT 35.447063 -10.344914 38,000 26 422 0
2019-11-05 13:34:00 GMT 35.427750 -10.356674 38,000 26 422 0
2019-11-05 13:33:50 GMT 35.411030 -10.366886 38,000 26 422 0
2019-11-05 13:33:40 GMT 35.392593 -10.378189 38,000 26 423 64
2019-11-05 13:33:29 GMT 35.373550 -10.389919 37,975 26 423 0
2019-11-05 13:33:18 GMT 35.354935 -10.401365 37,975 26 423 0
2019-11-05 13:33:07 GMT 35.334824 -10.413695 37,975 26 423 0
2019-11-05 13:32:58 GMT 35.319092 -10.423337 37,975 26 423 0
2019-11-05 13:32:48 GMT 35.301498 -10.434093 37,975 26 422 0
2019-11-05 13:32:37 GMT 35.282547 -10.445661 37,975 26 422 -64
2019-11-05 13:32:27 GMT 35.264099 -10.456924 38,000 26 422 -64
2019-11-05 13:32:15 GMT 35.245239 -10.468426 38,025 26 421 0
2019-11-05 13:32:06 GMT 35.227066 -10.479500 38,025 26 421 64
2019-11-05 13:31:55 GMT 35.209442 -10.490262 38,000 26 422 0
2019-11-05 13:31:44 GMT 35.190399 -10.501865 38,025 26 422 -64
2019-11-05 13:31:33 GMT 35.170807 -10.513804 38,025 26 422 0
2019-11-05 13:31:23 GMT 35.154110 -10.523930 38,025 26 422 0
2019-11-05 13:31:13 GMT 35.136791 -10.534515 38,025 26 422 -64
2019-11-05 13:31:03 GMT 35.116425 -10.546875 38,025 26 422 0
2019-11-05 13:30:53 GMT 35.101364 -10.556068 38,025 26 422 -64
2019-11-05 13:30:36 GMT 35.072224 -10.573826 38,025 26 422 0
2019-11-05 13:30:32 GMT 35.065193 -10.578060 38,025 26 423 0
2019-11-05 13:30:21 GMT 35.046108 -10.589676 38,025 26 423 -64
2019-11-05 13:30:09 GMT 35.023224 -10.603544 38,050 26 422 64
2019-11-05 13:30:00 GMT 35.009216 -10.612008 38,025 26 422 64
2019-11-05 13:29:51 GMT 34.991730 -10.622602 38,025 26 423 0
2019-11-05 13:29:40 GMT 34.972740 -10.634136 38,025 26 422 -64
2019-11-05 13:29:30 GMT 34.955841 -10.644351 38,050 26 422 0
2019-11-05 13:29:19 GMT 34.936386 -10.656066 38,025 26 422 64
2019-11-05 13:29:09 GMT 34.918972 -10.666580 38,025 26 422 0
2019-11-05 13:28:58 GMT 34.899376 -10.678425 38,025 26 422 0
2019-11-05 13:28:48 GMT 34.881958 -10.688913 38,025 26 422 0
2019-11-05 13:28:34 GMT 34.855774 -10.704775 38,025 26 421 64
2019-11-05 13:28:27 GMT 34.845840 -10.710773 38,025 26 421 0
2019-11-05 13:28:17 GMT 34.828079 -10.721479 38,025 26 420 -64
2019-11-05 13:28:07 GMT 34.810925 -10.731869 38,025 26 420 0
2019-11-05 13:27:54 GMT 34.788757 -10.745302 38,025 26 419 64
2019-11-05 13:27:45 GMT 34.773079 -10.754814 38,000 26 419 0
2019-11-05 13:27:34 GMT 34.754059 -10.766265 38,000 26 419 0
2019-11-05 13:27:25 GMT 34.738312 -10.775794 38,000 26 417 64
2019-11-05 13:25:56 GMT 34.584774 -10.867996 37,950 26 412 -64
2019-11-05 13:25:51 GMT 34.575989 -10.873270 37,950 26 412 -64
2019-11-05 13:25:24 GMT 34.530121 -10.900784 37,975 26 411 -64
2019-11-05 13:25:07 GMT 34.501587 -10.917835 37,975 26 411 -64
2019-11-05 13:24:55 GMT 34.481323 -10.929883 38,000 26 411 -128
2019-11-05 13:24:30 GMT 34.437855 -10.955944 38,025 26 412 -64
2019-11-05 13:24:27 GMT 34.432800 -10.958918 38,025 26 412 -64
2019-11-05 13:24:13 GMT 34.409317 -10.972988 38,025 26 413 -128
2019-11-05 13:23:39 GMT 34.349762 -11.008469 38,050 26 413 -64
2019-11-05 13:23:35 GMT 34.344334 -11.011677 38,050 26 415 0
2019-11-05 13:23:24 GMT 34.325500 -11.022931 38,050 26 415 64
2019-11-05 13:22:36 GMT 34.241405 -11.073017 38,000 26 418 0
2019-11-05 13:22:30 GMT 34.230743 -11.079320 38,000 26 418 0
2019-11-05 13:21:47 GMT 34.157749 -11.122627 37,950 26 416 0
2019-11-05 13:21:41 GMT 34.146996 -11.128979 37,975 26 416 -64
2019-11-05 13:21:31 GMT 34.129307 -11.139393 37,975 26 416 0
2019-11-05 13:21:02 GMT 34.079224 -11.169060 37,975 26 416 0
2019-11-05 13:20:13 GMT 33.993530 -11.219732 38,000 26 418 -64
2019-11-05 13:20:06 GMT 33.981785 -11.226654 38,000 26 418 -64
2019-11-05 13:19:55 GMT 33.962769 -11.237893 38,025 26 419 0
2019-11-05 13:19:39 GMT 33.934113 -11.254764 38,025 26 420 0
2019-11-05 13:19:13 GMT 33.889656 -11.280956 38,050 26 423 -64
2019-11-05 13:15:05 GMT 33.447556 -11.539709 38,000 25 430 0
2019-11-05 13:14:56 GMT 33.431301 -11.549153 38,000 25 431 0
2019-11-05 13:14:09 GMT 33.347324 -11.597863 38,025 26 432 0
2019-11-05 13:14:01 GMT 33.332611 -11.606396 38,025 25 433 -64
2019-11-05 13:13:40 GMT 33.294998 -11.628188 38,050 25 434 0
2019-11-05 13:13:22 GMT 33.260696 -11.648090 38,050 26 435 0
2019-11-05 13:13:13 GMT 33.245419 -11.656943 38,025 25 436 0
2019-11-05 13:13:02 GMT 33.226521 -11.667873 38,050 25 436 0
2019-11-05 13:12:47 GMT 33.199585 -11.683466 38,050 25 436 0
2019-11-05 13:12:39 GMT 33.184811 -11.692032 38,050 25 436 0
2019-11-05 13:12:14 GMT 33.136627 -11.719834 38,050 25 436 64
2019-11-05 13:12:11 GMT 33.132706 -11.722083 38,050 25 436 64
2019-11-05 13:11:06 GMT 33.015976 -11.789374 38,025 25 435 0
2019-11-05 13:09:22 GMT 32.823936 -11.899539 38,000 25 435 64
2019-11-05 13:09:13 GMT 32.808060 -11.908630 37,975 25 435 64
2019-11-05 13:09:00 GMT 32.783623 -11.922520 37,975 25 435 0
2019-11-05 13:07:58 GMT 32.672733 -11.985972 37,975 25 435 0
2019-11-05 13:07:35 GMT 32.630676 -12.009979 37,975 25 436 0
2019-11-05 13:07:23 GMT 32.608727 -12.022462 37,975 25 436 -64
2019-11-05 13:06:58 GMT 32.563896 -12.047854 38,000 25 436 -64
2019-11-05 13:05:20 GMT 32.382759 -12.150767 38,000 25 445 64
2019-11-05 13:05:16 GMT 32.374756 -12.155307 38,000 25 445 64
2019-11-05 13:05:05 GMT 32.356567 -12.165601 38,000 25 449 0
2019-11-05 13:04:47 GMT 32.320938 -12.185632 38,000 25 449 0
2019-11-05 13:04:43 GMT 32.312840 -12.190172 38,000 25 449 0
2019-11-05 13:04:34 GMT 32.295242 -12.200093 38,000 25 447 0
2019-11-05 13:04:22 GMT 32.276527 -12.210687 38,000 25 448 0
2019-11-05 13:04:12 GMT 32.253857 -12.223467 38,000 25 451 64
2019-11-05 13:03:59 GMT 32.231560 -12.236023 38,000 25 454 64
2019-11-05 13:03:51 GMT 32.215778 -12.244991 38,000 25 459 -192
2019-11-05 13:03:15 GMT 32.144737 -12.285293 38,025 25 470 64
2019-11-05 13:03:05 GMT 32.126629 -12.295495 38,025 25 471 0
2019-11-05 13:02:56 GMT 32.106937 -12.306593 38,025 25 472 -64
2019-11-05 13:02:42 GMT 32.077938 -12.322849 38,050 25 471 0
2019-11-05 13:02:29 GMT 32.055176 -12.335614 38,025 25 471 64
2019-11-05 13:01:24 GMT 31.925804 -12.408105 38,000 25 470 64
2019-11-05 13:00:49 GMT 31.860723 -12.444595 38,000 25 468 64
2019-11-05 13:00:39 GMT 31.841446 -12.455365 37,975 25 467 0
2019-11-05 13:00:35 GMT 31.833536 -12.459785 37,975 25 467 64
2019-11-05 13:00:26 GMT 31.814301 -12.470526 37,950 25 466 64
2019-11-05 13:00:16 GMT 31.790756 -12.483552 37,950 25 466 0
2019-11-05 13:00:05 GMT 31.773285 -12.493268 37,950 25 466 0
2019-11-05 12:59:53 GMT 31.751745 -12.505243 37,975 25 465 0
2019-11-05 12:59:44 GMT 31.732635 -12.515905 37,975 25 464 -64
2019-11-05 12:59:33 GMT 31.712782 -12.527051 37,975 25 463 -64
2019-11-05 12:59:23 GMT 31.692438 -12.538422 38,000 25 463 -128
2019-11-05 12:59:12 GMT 31.671249 -12.550264 38,025 25 462 -64
2019-11-05 12:59:02 GMT 31.651520 -12.561304 38,000 25 462 0
2019-11-05 12:58:51 GMT 31.630384 -12.573083 38,000 25 462 0
2019-11-05 12:58:41 GMT 31.611328 -12.583654 38,000 25 462 0
2019-11-05 12:58:31 GMT 31.592304 -12.594287 38,000 25 462 0
2019-11-05 12:58:19 GMT 31.569679 -12.606812 38,025 25 462 -64
2019-11-05 12:58:09 GMT 31.550314 -12.617523 38,025 25 461 0
2019-11-05 12:58:00 GMT 31.531601 -12.627905 38,025 25 461 64
2019-11-05 12:57:48 GMT 31.509348 -12.640210 38,000 25 462 128
2019-11-05 12:57:38 GMT 31.490168 -12.650757 37,975 25 463 64
2019-11-05 12:57:29 GMT 31.471594 -12.661029 37,975 25 462 64
2019-11-05 12:57:18 GMT 31.451063 -12.672400 38,000 25 462 -64
2019-11-05 12:57:08 GMT 31.430767 -12.683606 38,000 25 461 -64
2019-11-05 12:56:57 GMT 31.409492 -12.695416 38,000 25 461 0
2019-11-05 12:56:47 GMT 31.390915 -12.705688 38,000 25 461 0
2019-11-05 12:56:36 GMT 31.370762 -12.716895 38,000 25 460 0
2019-11-05 12:56:26 GMT 31.350512 -12.728101 38,000 25 460 0
2019-11-05 12:56:15 GMT 31.329702 -12.739581 38,000 25 460 64
2019-11-05 12:56:05 GMT 31.309500 -12.750787 38,000 25 460 0
2019-11-05 12:55:54 GMT 31.288504 -12.762378 38,000 25 459 0
2019-11-05 12:55:43 GMT 31.268600 -12.773384 38,000 25 459 0
2019-11-05 12:55:34 GMT 31.251114 -12.783024 38,000 25 458 0
2019-11-05 12:55:23 GMT 31.229279 -12.795087 38,000 25 457 0
2019-11-05 12:55:12 GMT 31.209000 -12.806235 38,000 25 455 64
2019-11-05 12:55:02 GMT 31.189545 -12.816952 38,000 25 456 0
2019-11-05 12:54:54 GMT 31.174543 -12.825220 38,000 25 457 0
2019-11-05 12:54:51 GMT 31.168671 -12.828423 38,000 25 457 0
2019-11-05 12:54:45 GMT 31.154806 -12.836041 38,000 25 457 0
2019-11-05 12:54:40 GMT 31.147497 -12.839996 38,000 25 457 0
2019-11-05 12:54:35 GMT 31.137817 -12.845279 38,000 25 457 0
2019-11-05 12:54:31 GMT 31.130598 -12.849225 38,000 25 457 0
2019-11-05 12:54:21 GMT 31.111771 -12.859497 38,000 25 456 0
2019-11-05 12:54:16 GMT 31.101608 -12.865044 38,000 25 455 0
2019-11-05 12:54:10 GMT 31.090393 -12.871184 38,000 25 453 0
2019-11-05 12:54:01 GMT 31.072769 -12.880823 38,000 25 451 64
2019-11-05 12:53:58 GMT 31.066589 -12.884216 37,975 25 451 128
2019-11-05 12:53:49 GMT 31.050842 -12.892887 37,950 25 450 512
2019-11-05 12:53:44 GMT 31.039589 -12.899048 37,875 25 452 832
2019-11-05 12:53:39 GMT 31.030975 -12.903712 37,800 25 452 960
2019-11-05 12:53:28 GMT 31.011063 -12.914644 37,675 25 453 576
2019-11-05 12:53:18 GMT 30.991562 -12.925361 37,600 25 452 576
2019-11-05 12:53:07 GMT 30.970598 -12.936896 37,400 25 454 1472
2019-11-05 12:52:57 GMT 30.952118 -12.947058 37,150 25 458 1408
2019-11-05 12:52:47 GMT 30.931913 -12.958099 36,975 25 459 896
2019-11-05 12:52:40 GMT 30.918413 -12.965515 36,850 25 461 1088
2019-11-05 12:52:36 GMT 30.911179 -12.969468 36,775 25 461 1152
2019-11-05 12:52:26 GMT 30.891037 -12.980454 36,600 25 463 896
2019-11-05 12:52:17 GMT 30.873779 -12.989933 36,450 25 463 960
2019-11-05 12:52:14 GMT 30.867783 -12.993218 36,400 25 463 960
2019-11-05 12:52:11 GMT 30.861969 -12.996395 36,375 25 464 1024
2019-11-05 12:52:05 GMT 30.850891 -13.002427 36,275 25 464 1024
2019-11-05 12:51:53 GMT 30.826845 -13.015558 36,075 25 465 960
2019-11-05 12:51:44 GMT 30.810562 -13.024454 35,925 25 465 960
2019-11-05 12:51:41 GMT 30.802265 -13.028961 35,850 25 465 960
2019-11-05 12:51:34 GMT 30.790649 -13.035278 35,775 25 466 832
2019-11-05 12:51:24 GMT 30.770239 -13.046320 35,625 25 464 768
2019-11-05 12:51:13 GMT 30.749863 -13.057359 35,525 25 463 512
2019-11-05 12:51:03 GMT 30.730156 -13.068127 35,425 25 463 576
2019-11-05 12:50:58 GMT 30.719009 -13.074215 35,375 25 462 576
2019-11-05 12:50:53 GMT 30.709671 -13.079277 35,325 25 462 576
2019-11-05 12:50:48 GMT 30.699829 -13.084609 35,275 25 460 640
2019-11-05 12:50:42 GMT 30.689516 -13.090265 35,225 25 460 768
2019-11-05 12:50:32 GMT 30.669891 -13.100927 35,050 25 460 1152
2019-11-05 12:50:24 GMT 30.653503 -13.109867 34,875 25 462 1408
2019-11-05 12:50:21 GMT 30.649529 -13.112018 34,825 25 462 1408
2019-11-05 12:50:10 GMT 30.628393 -13.123553 34,575 25 464 1344
2019-11-05 12:50:07 GMT 30.620619 -13.127783 34,475 25 465 1408
2019-11-05 12:50:00 GMT 30.608826 -13.134209 34,350 25 465 1344
2019-11-05 12:49:57 GMT 30.601410 -13.138248 34,275 25 467 1280
2019-11-05 12:49:50 GMT 30.588684 -13.145142 34,125 25 466 1280
2019-11-05 12:49:40 GMT 30.568130 -13.156343 33,900 25 467 1152
2019-11-05 12:49:29 GMT 30.547857 -13.167389 33,725 25 467 1024
2019-11-05 12:49:24 GMT 30.537186 -13.173200 33,625 25 467 1024
2019-11-05 12:49:19 GMT 30.527283 -13.178540 33,525 25 467 1024
2019-11-05 12:49:09 GMT 30.507683 -13.189142 33,375 25 465 768
2019-11-05 12:48:58 GMT 30.486408 -13.200623 33,250 25 464 640
2019-11-05 12:48:48 GMT 30.466644 -13.211275 33,125 25 462 896
2019-11-05 12:48:43 GMT 30.457827 -13.216058 33,050 25 461 1024
2019-11-05 12:48:37 GMT 30.446793 -13.222046 32,950 25 461 1088
2019-11-05 12:48:32 GMT 30.436798 -13.227431 32,850 25 461 1088
2019-11-05 12:48:27 GMT 30.426682 -13.232977 32,775 25 460 896
2019-11-05 12:48:16 GMT 30.405121 -13.244611 32,625 25 458 768
2019-11-05 12:48:06 GMT 30.386673 -13.254574 32,475 25 457 1216
2019-11-05 12:47:56 GMT 30.366714 -13.265399 32,250 25 457 1216
2019-11-05 12:47:45 GMT 30.346287 -13.276428 32,075 25 455 1024
2019-11-05 12:47:35 GMT 30.327438 -13.286618 31,850 25 455 1408
2019-11-05 12:47:32 GMT 30.320389 -13.290387 31,775 25 455 1344
2019-11-05 12:47:24 GMT 30.306297 -13.297961 31,650 24 454 960
2019-11-05 12:47:13 GMT 30.285233 -13.309236 31,500 24 452 640
2019-11-05 12:47:04 GMT 30.267382 -13.318890 31,425 24 447 576
2019-11-05 12:46:53 GMT 30.247875 -13.329327 31,275 25 444 960
2019-11-05 12:46:50 GMT 30.240509 -13.333309 31,225 25 441 1088
2019-11-05 12:46:41 GMT 30.223938 -13.342249 31,025 25 441 1088
2019-11-05 12:46:32 GMT 30.207413 -13.351135 30,850 25 442 1152
2019-11-05 12:46:27 GMT 30.198250 -13.356079 30,750 25 441 1088
2019-11-05 12:46:21 GMT 30.188242 -13.361462 30,650 25 440 1152
2019-11-05 12:46:11 GMT 30.168318 -13.372174 30,425 25 439 1472
2019-11-05 12:46:01 GMT 30.149963 -13.382048 30,175 24 438 1728
2019-11-05 12:45:50 GMT 30.130966 -13.392226 29,850 24 440 1856
2019-11-05 12:45:40 GMT 30.111740 -13.402512 29,600 25 439 1088
2019-11-05 12:45:29 GMT 30.090994 -13.413647 29,400 25 437 1152
2019-11-05 12:45:19 GMT 30.072784 -13.423462 29,150 25 434 1152
2019-11-05 12:45:07 GMT 30.051590 -13.434771 28,975 24 432 1472
2019-11-05 12:44:58 GMT 30.034195 -13.444088 28,750 24 431 1536
2019-11-05 12:44:48 GMT 30.016138 -13.453748 27,925 25 430 1344
2019-11-05 12:44:37 GMT 29.997116 -13.463907 28,275 24 429 1472
2019-11-05 12:44:26 GMT 29.978073 -13.474139 27,975 25 427 1472
2019-11-05 12:44:15 GMT 29.957762 -13.485059 27,725 25 425 1472
2019-11-05 12:44:05 GMT 29.939421 -13.494946 27,475 25 423 1664
2019-11-05 12:43:54 GMT 29.920984 -13.504944 27,175 25 421 1600
2019-11-05 12:43:44 GMT 29.902588 -13.515032 26,925 25 419 1408
2019-11-05 12:43:34 GMT 29.884186 -13.525173 26,650 25 417 1536
2019-11-05 12:43:22 GMT 29.864100 -13.536126 26,350 23 415 1664
2019-11-05 12:43:13 GMT 29.845572 -13.543988 26,075 13 408 1472
2019-11-05 12:43:02 GMT 29.827652 -13.547622 25,825 3 399 1536
2019-11-05 12:42:51 GMT 29.808472 -13.547991 25,525 359 392 1856
2019-11-05 12:42:42 GMT 29.789289 -13.547543 25,175 359 391 2176
2019-11-05 12:42:31 GMT 29.771179 -13.547166 24,800 359 391 2368
2019-11-05 12:42:20 GMT 29.752001 -13.546735 24,400 359 391 2112
2019-11-05 12:42:10 GMT 29.733938 -13.546358 24,050 359 389 2112
2019-11-05 12:41:59 GMT 29.714767 -13.545931 23,675 359 387 2048
2019-11-05 12:41:49 GMT 29.696045 -13.545496 23,375 359 385 1728
2019-11-05 12:41:39 GMT 29.678122 -13.545119 23,100 359 380 1472
2019-11-05 12:41:28 GMT 29.659744 -13.544664 22,825 359 376 1664
2019-11-05 12:41:19 GMT 29.642029 -13.544294 22,450 359 374 2560
2019-11-05 12:41:07 GMT 29.622757 -13.543871 21,975 359 375 2496
2019-11-05 12:40:57 GMT 29.605686 -13.543450 21,650 359 372 1792
2019-11-05 12:40:47 GMT 29.587811 -13.543073 21,325 359 368 1920
2019-11-05 12:40:36 GMT 29.569750 -13.542642 20,925 359 367 2624
2019-11-05 12:40:25 GMT 29.551407 -13.542211 20,475 359 366 2240
2019-11-05 12:40:16 GMT 29.533859 -13.541864 20,125 359 363 1984
2019-11-05 12:40:05 GMT 29.516167 -13.541457 19,750 359 360 2304
2019-11-05 12:39:54 GMT 29.498802 -13.541080 19,325 359 360 2560
2019-11-05 12:39:45 GMT 29.481674 -13.540702 18,875 359 359 2432
2019-11-05 12:39:34 GMT 29.464354 -13.540326 18,500 359 356 2112
2019-11-05 12:39:24 GMT 29.447159 -13.539963 18,125 0 353 2304
2019-11-05 12:39:13 GMT 29.430557 -13.539626 17,700 0 351 2432
2019-11-05 12:39:02 GMT 29.412914 -13.539249 17,275 0 348 2432
2019-11-05 12:38:52 GMT 29.396896 -13.538906 16,900 359 344 2112
2019-11-05 12:38:40 GMT 29.378540 -13.538537 16,500 359 338 2112
2019-11-05 12:38:32 GMT 29.363708 -13.538167 16,175 359 334 2112
2019-11-05 12:38:21 GMT 29.347687 -13.537797 15,800 359 328 1984
2019-11-05 12:38:11 GMT 29.332123 -13.537427 15,450 359 322 2496
2019-11-05 12:38:00 GMT 29.316513 -13.537111 14,975 359 320 2752
2019-11-05 12:37:50 GMT 29.300444 -13.536772 14,450 359 318 3008
2019-11-05 12:37:39 GMT 29.285408 -13.536449 13,925 359 318 3136
2019-11-05 12:37:28 GMT 29.270050 -13.536107 13,375 359 318 3264
2019-11-05 12:37:18 GMT 29.254715 -13.535737 12,850 359 318 2816
2019-11-05 12:37:08 GMT 29.239508 -13.535372 12,400 359 314 2560
2019-11-05 12:36:57 GMT 29.223959 -13.535049 11,925 359 311 2688
2019-11-05 12:36:46 GMT 29.209122 -13.534681 11,450 359 306 2560
2019-11-05 12:36:37 GMT 29.194611 -13.534364 11,050 359 301 2240
2019-11-05 12:36:26 GMT 29.180153 -13.534079 10,725 0 291 1216
2019-11-05 12:36:15 GMT 29.166233 -13.533810 10,450 0 278 2432
2019-11-05 12:36:05 GMT 29.152548 -13.533541 9,850 0 279 3648
2019-11-05 12:35:54 GMT 29.138947 -13.533308 9,275 359 278 3008
2019-11-05 12:35:43 GMT 29.124939 -13.532991 8,725 359 275 3008
2019-11-05 12:35:32 GMT 29.111443 -13.532679 8,250 359 270 2496
2019-11-05 12:35:22 GMT 29.099030 -13.532251 7,800 358 263 3008
2019-11-05 12:35:11 GMT 29.085114 -13.531617 7,225 358 257 2816
2019-11-05 12:35:01 GMT 29.073898 -13.530931 6,850 357 250 1920
2019-11-05 12:34:51 GMT 29.062189 -13.530040 6,550 356 235 1920
2019-11-05 12:34:41 GMT 29.050873 -13.529135 6,125 357 224 2816
2019-11-05 12:34:31 GMT 29.040207 -13.528818 5,575 7 217 3456
2019-11-05 12:34:19 GMT 29.029495 -13.532304 4,875 35 222 3968
2019-11-05 12:34:09 GMT 29.021736 -13.540272 4,275 51 228 3264
2019-11-05 12:33:58 GMT 29.014160 -13.550157 3,675 40 224 3136
2019-11-05 12:33:49 GMT 29.005463 -13.557710 3,175 34 218 2688
2019-11-05 12:33:37 GMT 28.996737 -13.564453 2,750 34 208 1856
2019-11-05 12:33:27 GMT 28.988451 -13.570970 2,425 35 196 1728
2019-11-05 12:33:15 GMT 28.979828 -13.577940 2,125 35 181 1600
2019-11-05 12:33:06 GMT 28.974152 -13.582640 1,850 36 170 1856
2019-11-05 12:32:56 GMT 28.967834 -13.588186 1,500 37 159 1984
2019-11-05 12:32:46 GMT 28.961929 -13.593363 1,150 37 148 2304
2019-11-05 12:32:35 GMT 28.956190 -13.598166 625 31 147 3136
2019-11-05 12:32:24 GMT 28.950165 -13.602395 100 27 149 3200
2019-11-05 12:32:14 GMT 28.943808 -13.606190 -200 27 130 192
2019-11-05 12:32:03 GMT 28.938919 -13.608991 -175 25 67
2019-11-05 12:31:52 GMT 28.936363 -13.610502 0 28 15
2019-11-05 12:31:32 GMT 28.936184 -13.610593 0 28 0
2019-11-05 12:31:20 GMT 28.936184 -13.610606 0 25 0
2019-11-05 12:31:11 GMT 28.936077 -13.610608 0 56 6
2019-11-05 12:31:01 GMT 28.936010 -13.610862 0 112 10
2019-11-05 12:30:51 GMT 28.936255 -13.611468 0 115 15
2019-11-05 12:30:40 GMT 28.936604 -13.612141 0 157 12
2019-11-05 12:30:29 GMT 28.937057 -13.612168 0 205 7
2019-11-05 12:30:19 GMT 28.937243 -13.612061 0 208 0
2019-11-05 12:29:54 GMT 28.937256 -13.612061 0 208 0
2019-11-05 12:29:23 GMT 28.937256 -13.612061 0 208 0
2019-11-05 12:29:15 GMT 28.937347 -13.611995 0 208 9
2019-11-05 12:29:05 GMT 28.937862 -13.611704 0 208 20
2019-11-05 12:28:56 GMT 28.938698 -13.611212 0 205 23
2019-11-05 12:28:45 GMT 28.939747 -13.610606 0 208 31
2019-11-05 12:28:34 GMT 28.941147 -13.609789 0 208 31
2019-11-05 12:28:24 GMT 28.942406 -13.609063 0 208 28
2019-11-05 12:28:13 GMT 28.943653 -13.608337 0 208 31
2019-11-05 12:28:03 GMT 28.944901 -13.607624 0 208 29
2019-11-05 12:27:53 GMT 28.945999 -13.606977 0 208 25
2019-11-05 12:27:42 GMT 28.947018 -13.606396 0 208 21
2019-11-05 12:27:32 GMT 28.947823 -13.605935 0 208 15
2019-11-05 12:27:21 GMT 28.948427 -13.605665 0 163 11
2019-11-05 12:27:11 GMT 28.948776 -13.605962 0 115 12
2019-11-05 12:27:00 GMT 28.949032 -13.606594 0 126 11
2019-11-05 12:26:49 GMT 28.949409 -13.606792 0 208 10
2019-11-05 12:26:37 GMT 28.949846 -13.606527 0 208 7
2019-11-05 12:26:28 GMT 28.950081 -13.606392 0 208 5
2019-11-05 12:24:34 GMT 28.950254 -13.606285 0 208 0
2019-11-05 12:24:25 GMT 28.950245 -13.606290 0 208 0
2019-11-05 12:23:38 GMT 28.950254 -13.606285 0 208 0
2019-11-05 12:23:28 GMT 28.950245 -13.606290 0 208 0
2019-11-05 12:23:18 GMT 28.950243 -13.606285 0 208 0
2019-11-05 12:23:01 GMT 28.950245 -13.606290 0 208 0
2019-11-05 12:22:40 GMT 28.950186 -13.606406 0 230 3
2019-11-05 12:22:21 GMT 28.950279 -13.606686 0 289 4
2019-11-05 12:22:13 GMT 28.950336 -13.606796 0 295 4

Making use of Plane Finder data

You are free to use the raw flight data, aircraft information and images provided in this report for your own purposes provided the data is correctly attributed to Plane Finder. We ask that you please credit Plane Finder and link to planefinder.net in close proximity to the content.

Optionally one of the following logos (no smaller then 150x24px) can be used and must link to planefinder.net

Embedding the Plane Finder map

You are welcome to embed the Plane Finder playback map on your website to offer visitors a more interactive experience. We suggest using the following HTML code:

<iframe src="//planefinder.net/data/report/U26194-G-UZHV-7700-squawk-2019-11-05/map" width="800" height="600" seamless="seamless"></iframe>

Where our data comes from

Plane Finder has a global network of data feeds and antenna radars that receive data broadcast directly from aircraft. The primary technologies used are ADS-B and MLAT. We also show feeds from the FAA and a FLARM glider feed.

Click here to find out more about the Plane Finder network.

How we collect our data